<?xml version="1.0" encoding="UTF-8" standalone="no" ?>
<gpx xmlns="http://www.topografix.com/GPX/1/1" xmlns:xsi="http://www.w3.org/2001/XMLSchema-instance" xsi:schemaLocation="http://www.topografix.com/GPX/1/1 http://www.topografix.com/GPX/1/1/gpx.xsd" version="1.1" creator="VisuGPX - https://www.visugpx.com">
  <metadata>
    <name>VALZERGUES LE CHEMIN DES MINES</name>
  </metadata>
  <wpt lat="44.49946" lon="2.22262">
    <ele>439.42578125</ele>
    <name><![CDATA[DéPART VALZERGUES LE CHEMIN DES MINES]]></name>
    <type><![CDATA[user]]></type>
  </wpt>
  <trk>
    <name><![CDATA[VALZERGUES LE CHEMIN DES MINES]]></name>
    <trkseg>
      <trkpt lat="44.49936" lon="2.22261">
        <ele>441.86</ele>
        <time>2016-01-26T13:13:07Z</time>
      </trkpt>
      <trkpt lat="44.49945" lon="2.22272">
        <ele>441.86</ele>
        <time>2016-01-26T13:13:42Z</time>
      </trkpt>
      <trkpt lat="44.49952" lon="2.22282">
        <ele>441.86</ele>
        <time>2016-01-26T13:14:02Z</time>
      </trkpt>
      <trkpt lat="44.49958" lon="2.22292">
        <ele>441.86</ele>
        <time>2016-01-26T13:14:19Z</time>
      </trkpt>
      <trkpt lat="44.49967" lon="2.22301">
        <ele>441.86</ele>
        <time>2016-01-26T13:14:46Z</time>
      </trkpt>
      <trkpt lat="44.49978" lon="2.2231">
        <ele>441.38</ele>
        <time>2016-01-26T13:15:01Z</time>
      </trkpt>
      <trkpt lat="44.49988" lon="2.22307">
        <ele>440.9</ele>
        <time>2016-01-26T13:15:11Z</time>
      </trkpt>
      <trkpt lat="44.49996" lon="2.22301">
        <ele>440.9</ele>
        <time>2016-01-26T13:15:19Z</time>
      </trkpt>
      <trkpt lat="44.50003" lon="2.22292">
        <ele>440.9</ele>
        <time>2016-01-26T13:15:28Z</time>
      </trkpt>
      <trkpt lat="44.5001" lon="2.22284">
        <ele>440.42</ele>
        <time>2016-01-26T13:15:36Z</time>
      </trkpt>
      <trkpt lat="44.50018" lon="2.22275">
        <ele>440.42</ele>
        <time>2016-01-26T13:15:44Z</time>
      </trkpt>
      <trkpt lat="44.50026" lon="2.22267">
        <ele>439.94</ele>
        <time>2016-01-26T13:15:52Z</time>
      </trkpt>
      <trkpt lat="44.50034" lon="2.22259">
        <ele>439.46</ele>
        <time>2016-01-26T13:16:00Z</time>
      </trkpt>
      <trkpt lat="44.50042" lon="2.22251">
        <ele>439.46</ele>
        <time>2016-01-26T13:16:08Z</time>
      </trkpt>
      <trkpt lat="44.50049" lon="2.22243">
        <ele>439.46</ele>
        <time>2016-01-26T13:16:16Z</time>
      </trkpt>
      <trkpt lat="44.50057" lon="2.22235">
        <ele>439.46</ele>
        <time>2016-01-26T13:16:24Z</time>
      </trkpt>
      <trkpt lat="44.50065" lon="2.22228">
        <ele>439.46</ele>
        <time>2016-01-26T13:16:32Z</time>
      </trkpt>
      <trkpt lat="44.50073" lon="2.2222">
        <ele>440.9</ele>
        <time>2016-01-26T13:16:40Z</time>
      </trkpt>
      <trkpt lat="44.50081" lon="2.22211">
        <ele>440.9</ele>
        <time>2016-01-26T13:16:48Z</time>
      </trkpt>
      <trkpt lat="44.50089" lon="2.22204">
        <ele>441.38</ele>
        <time>2016-01-26T13:16:56Z</time>
      </trkpt>
      <trkpt lat="44.50098" lon="2.222">
        <ele>441.86</ele>
        <time>2016-01-26T13:17:04Z</time>
      </trkpt>
      <trkpt lat="44.50108" lon="2.22199">
        <ele>442.34</ele>
        <time>2016-01-26T13:17:12Z</time>
      </trkpt>
      <trkpt lat="44.50118" lon="2.22201">
        <ele>442.34</ele>
        <time>2016-01-26T13:17:20Z</time>
      </trkpt>
      <trkpt lat="44.50128" lon="2.22205">
        <ele>442.82</ele>
        <time>2016-01-26T13:17:28Z</time>
      </trkpt>
      <trkpt lat="44.50138" lon="2.22208">
        <ele>443.31</ele>
        <time>2016-01-26T13:17:36Z</time>
      </trkpt>
      <trkpt lat="44.50148" lon="2.2221">
        <ele>443.31</ele>
        <time>2016-01-26T13:17:44Z</time>
      </trkpt>
      <trkpt lat="44.50158" lon="2.22213">
        <ele>443.79</ele>
        <time>2016-01-26T13:17:53Z</time>
      </trkpt>
      <trkpt lat="44.50169" lon="2.22213">
        <ele>444.27</ele>
        <time>2016-01-26T13:18:01Z</time>
      </trkpt>
      <trkpt lat="44.50179" lon="2.22214">
        <ele>444.75</ele>
        <time>2016-01-26T13:18:09Z</time>
      </trkpt>
      <trkpt lat="44.5019" lon="2.22216">
        <ele>445.23</ele>
        <time>2016-01-26T13:18:17Z</time>
      </trkpt>
      <trkpt lat="44.502" lon="2.22217">
        <ele>445.71</ele>
        <time>2016-01-26T13:18:25Z</time>
      </trkpt>
      <trkpt lat="44.50211" lon="2.22215">
        <ele>445.71</ele>
        <time>2016-01-26T13:18:33Z</time>
      </trkpt>
      <trkpt lat="44.5022" lon="2.22212">
        <ele>445.71</ele>
        <time>2016-01-26T13:18:41Z</time>
      </trkpt>
      <trkpt lat="44.5023" lon="2.22209">
        <ele>446.19</ele>
        <time>2016-01-26T13:18:49Z</time>
      </trkpt>
      <trkpt lat="44.5024" lon="2.22203">
        <ele>446.19</ele>
        <time>2016-01-26T13:18:57Z</time>
      </trkpt>
      <trkpt lat="44.50249" lon="2.22196">
        <ele>446.67</ele>
        <time>2016-01-26T13:19:05Z</time>
      </trkpt>
      <trkpt lat="44.50258" lon="2.22191">
        <ele>447.15</ele>
        <time>2016-01-26T13:19:13Z</time>
      </trkpt>
      <trkpt lat="44.50267" lon="2.22187">
        <ele>448.11</ele>
        <time>2016-01-26T13:19:21Z</time>
      </trkpt>
      <trkpt lat="44.50276" lon="2.22183">
        <ele>448.59</ele>
        <time>2016-01-26T13:19:29Z</time>
      </trkpt>
      <trkpt lat="44.50285" lon="2.22179">
        <ele>449.07</ele>
        <time>2016-01-26T13:19:37Z</time>
      </trkpt>
      <trkpt lat="44.50295" lon="2.22173">
        <ele>449.07</ele>
        <time>2016-01-26T13:19:45Z</time>
      </trkpt>
      <trkpt lat="44.50304" lon="2.2217">
        <ele>449.55</ele>
        <time>2016-01-26T13:19:52Z</time>
      </trkpt>
      <trkpt lat="44.50314" lon="2.22166">
        <ele>449.55</ele>
        <time>2016-01-26T13:20:00Z</time>
      </trkpt>
      <trkpt lat="44.50324" lon="2.22161">
        <ele>449.55</ele>
        <time>2016-01-26T13:20:08Z</time>
      </trkpt>
      <trkpt lat="44.50332" lon="2.22156">
        <ele>449.07</ele>
        <time>2016-01-26T13:20:15Z</time>
      </trkpt>
      <trkpt lat="44.50342" lon="2.22151">
        <ele>449.07</ele>
        <time>2016-01-26T13:20:23Z</time>
      </trkpt>
      <trkpt lat="44.50352" lon="2.22144">
        <ele>449.07</ele>
        <time>2016-01-26T13:20:31Z</time>
      </trkpt>
      <trkpt lat="44.5036" lon="2.22137">
        <ele>449.07</ele>
        <time>2016-01-26T13:20:39Z</time>
      </trkpt>
      <trkpt lat="44.50368" lon="2.22129">
        <ele>449.07</ele>
        <time>2016-01-26T13:20:46Z</time>
      </trkpt>
      <trkpt lat="44.50377" lon="2.22121">
        <ele>449.07</ele>
        <time>2016-01-26T13:20:54Z</time>
      </trkpt>
      <trkpt lat="44.50384" lon="2.22113">
        <ele>449.07</ele>
        <time>2016-01-26T13:21:02Z</time>
      </trkpt>
      <trkpt lat="44.50393" lon="2.22105">
        <ele>449.07</ele>
        <time>2016-01-26T13:21:10Z</time>
      </trkpt>
      <trkpt lat="44.50401" lon="2.22096">
        <ele>449.07</ele>
        <time>2016-01-26T13:21:17Z</time>
      </trkpt>
      <trkpt lat="44.50409" lon="2.22089">
        <ele>449.07</ele>
        <time>2016-01-26T13:21:24Z</time>
      </trkpt>
      <trkpt lat="44.50418" lon="2.22081">
        <ele>449.07</ele>
        <time>2016-01-26T13:21:32Z</time>
      </trkpt>
      <trkpt lat="44.50427" lon="2.22075">
        <ele>449.07</ele>
        <time>2016-01-26T13:21:40Z</time>
      </trkpt>
      <trkpt lat="44.50437" lon="2.2207">
        <ele>449.07</ele>
        <time>2016-01-26T13:21:48Z</time>
      </trkpt>
      <trkpt lat="44.50446" lon="2.22065">
        <ele>449.55</ele>
        <time>2016-01-26T13:21:56Z</time>
      </trkpt>
      <trkpt lat="44.50457" lon="2.22062">
        <ele>449.55</ele>
        <time>2016-01-26T13:22:04Z</time>
      </trkpt>
      <trkpt lat="44.50467" lon="2.22059">
        <ele>450.52</ele>
        <time>2016-01-26T13:22:12Z</time>
      </trkpt>
      <trkpt lat="44.50478" lon="2.22054">
        <ele>450.52</ele>
        <time>2016-01-26T13:22:21Z</time>
      </trkpt>
      <trkpt lat="44.50487" lon="2.22049">
        <ele>451</ele>
        <time>2016-01-26T13:22:29Z</time>
      </trkpt>
      <trkpt lat="44.50497" lon="2.22045">
        <ele>451.96</ele>
        <time>2016-01-26T13:22:37Z</time>
      </trkpt>
      <trkpt lat="44.50506" lon="2.22042">
        <ele>452.44</ele>
        <time>2016-01-26T13:22:45Z</time>
      </trkpt>
      <trkpt lat="44.50517" lon="2.2204">
        <ele>452.92</ele>
        <time>2016-01-26T13:22:54Z</time>
      </trkpt>
      <trkpt lat="44.50526" lon="2.22043">
        <ele>453.88</ele>
        <time>2016-01-26T13:23:03Z</time>
      </trkpt>
      <trkpt lat="44.50534" lon="2.22052">
        <ele>455.8</ele>
        <time>2016-01-26T13:23:14Z</time>
      </trkpt>
      <trkpt lat="44.50542" lon="2.22063">
        <ele>456.28</ele>
        <time>2016-01-26T13:23:24Z</time>
      </trkpt>
      <trkpt lat="44.5055" lon="2.22075">
        <ele>457.72</ele>
        <time>2016-01-26T13:23:33Z</time>
      </trkpt>
      <trkpt lat="44.50558" lon="2.22085">
        <ele>458.69</ele>
        <time>2016-01-26T13:23:41Z</time>
      </trkpt>
      <trkpt lat="44.50565" lon="2.22094">
        <ele>459.17</ele>
        <time>2016-01-26T13:23:49Z</time>
      </trkpt>
      <trkpt lat="44.50575" lon="2.22101">
        <ele>460.13</ele>
        <time>2016-01-26T13:23:57Z</time>
      </trkpt>
      <trkpt lat="44.50583" lon="2.22107">
        <ele>460.61</ele>
        <time>2016-01-26T13:24:05Z</time>
      </trkpt>
      <trkpt lat="44.50592" lon="2.22111">
        <ele>461.09</ele>
        <time>2016-01-26T13:24:13Z</time>
      </trkpt>
      <trkpt lat="44.50602" lon="2.22115">
        <ele>461.09</ele>
        <time>2016-01-26T13:24:21Z</time>
      </trkpt>
      <trkpt lat="44.50611" lon="2.2212">
        <ele>461.57</ele>
        <time>2016-01-26T13:24:29Z</time>
      </trkpt>
      <trkpt lat="44.50622" lon="2.22125">
        <ele>461.57</ele>
        <time>2016-01-26T13:24:37Z</time>
      </trkpt>
      <trkpt lat="44.5063" lon="2.2213">
        <ele>461.09</ele>
        <time>2016-01-26T13:24:44Z</time>
      </trkpt>
      <trkpt lat="44.50639" lon="2.22135">
        <ele>461.57</ele>
        <time>2016-01-26T13:24:51Z</time>
      </trkpt>
      <trkpt lat="44.50648" lon="2.22141">
        <ele>462.05</ele>
        <time>2016-01-26T13:24:59Z</time>
      </trkpt>
      <trkpt lat="44.50658" lon="2.22145">
        <ele>462.53</ele>
        <time>2016-01-26T13:25:07Z</time>
      </trkpt>
      <trkpt lat="44.50666" lon="2.22149">
        <ele>462.53</ele>
        <time>2016-01-26T13:25:14Z</time>
      </trkpt>
      <trkpt lat="44.50676" lon="2.22154">
        <ele>463.49</ele>
        <time>2016-01-26T13:25:22Z</time>
      </trkpt>
      <trkpt lat="44.50685" lon="2.22158">
        <ele>464.45</ele>
        <time>2016-01-26T13:25:30Z</time>
      </trkpt>
      <trkpt lat="44.50694" lon="2.22163">
        <ele>464.93</ele>
        <time>2016-01-26T13:25:38Z</time>
      </trkpt>
      <trkpt lat="44.50704" lon="2.22166">
        <ele>465.42</ele>
        <time>2016-01-26T13:25:46Z</time>
      </trkpt>
      <trkpt lat="44.50714" lon="2.22171">
        <ele>466.38</ele>
        <time>2016-01-26T13:25:54Z</time>
      </trkpt>
      <trkpt lat="44.50723" lon="2.22177">
        <ele>466.86</ele>
        <time>2016-01-26T13:26:02Z</time>
      </trkpt>
      <trkpt lat="44.50732" lon="2.22178">
        <ele>466.86</ele>
        <time>2016-01-26T13:26:10Z</time>
      </trkpt>
      <trkpt lat="44.50741" lon="2.22174">
        <ele>466.86</ele>
        <time>2016-01-26T13:26:21Z</time>
      </trkpt>
      <trkpt lat="44.50751" lon="2.22171">
        <ele>467.34</ele>
        <time>2016-01-26T13:26:28Z</time>
      </trkpt>
      <trkpt lat="44.5076" lon="2.22167">
        <ele>467.82</ele>
        <time>2016-01-26T13:26:35Z</time>
      </trkpt>
      <trkpt lat="44.50769" lon="2.22164">
        <ele>467.82</ele>
        <time>2016-01-26T13:26:43Z</time>
      </trkpt>
      <trkpt lat="44.50778" lon="2.22159">
        <ele>467.34</ele>
        <time>2016-01-26T13:26:51Z</time>
      </trkpt>
      <trkpt lat="44.50787" lon="2.22155">
        <ele>467.34</ele>
        <time>2016-01-26T13:26:59Z</time>
      </trkpt>
      <trkpt lat="44.50795" lon="2.2215">
        <ele>467.34</ele>
        <time>2016-01-26T13:27:06Z</time>
      </trkpt>
      <trkpt lat="44.50804" lon="2.22144">
        <ele>467.34</ele>
        <time>2016-01-26T13:27:14Z</time>
      </trkpt>
      <trkpt lat="44.50811" lon="2.22142">
        <ele>467.34</ele>
        <time>2016-01-26T13:27:28Z</time>
      </trkpt>
      <trkpt lat="44.50815" lon="2.2214">
        <ele>467.34</ele>
        <time>2016-01-26T13:27:44Z</time>
      </trkpt>
      <trkpt lat="44.50824" lon="2.22135">
        <ele>467.34</ele>
        <time>2016-01-26T13:27:52Z</time>
      </trkpt>
      <trkpt lat="44.50833" lon="2.22129">
        <ele>467.34</ele>
        <time>2016-01-26T13:28:00Z</time>
      </trkpt>
      <trkpt lat="44.50842" lon="2.22124">
        <ele>467.34</ele>
        <time>2016-01-26T13:28:08Z</time>
      </trkpt>
      <trkpt lat="44.50849" lon="2.22117">
        <ele>467.34</ele>
        <time>2016-01-26T13:28:23Z</time>
      </trkpt>
      <trkpt lat="44.50857" lon="2.22112">
        <ele>466.38</ele>
        <time>2016-01-26T13:28:31Z</time>
      </trkpt>
      <trkpt lat="44.50867" lon="2.22107">
        <ele>466.38</ele>
        <time>2016-01-26T13:28:39Z</time>
      </trkpt>
      <trkpt lat="44.50877" lon="2.22101">
        <ele>466.38</ele>
        <time>2016-01-26T13:28:48Z</time>
      </trkpt>
      <trkpt lat="44.50886" lon="2.22097">
        <ele>466.38</ele>
        <time>2016-01-26T13:29:06Z</time>
      </trkpt>
      <trkpt lat="44.50894" lon="2.22092">
        <ele>466.38</ele>
        <time>2016-01-26T13:29:15Z</time>
      </trkpt>
      <trkpt lat="44.50902" lon="2.22087">
        <ele>465.9</ele>
        <time>2016-01-26T13:29:22Z</time>
      </trkpt>
      <trkpt lat="44.50912" lon="2.22082">
        <ele>465.9</ele>
        <time>2016-01-26T13:29:30Z</time>
      </trkpt>
      <trkpt lat="44.50922" lon="2.22078">
        <ele>465.9</ele>
        <time>2016-01-26T13:29:38Z</time>
      </trkpt>
      <trkpt lat="44.50931" lon="2.22074">
        <ele>465.9</ele>
        <time>2016-01-26T13:29:46Z</time>
      </trkpt>
      <trkpt lat="44.50941" lon="2.22069">
        <ele>465.9</ele>
        <time>2016-01-26T13:29:54Z</time>
      </trkpt>
      <trkpt lat="44.5095" lon="2.22066">
        <ele>465.9</ele>
        <time>2016-01-26T13:30:01Z</time>
      </trkpt>
      <trkpt lat="44.5096" lon="2.22061">
        <ele>465.9</ele>
        <time>2016-01-26T13:30:09Z</time>
      </trkpt>
      <trkpt lat="44.50969" lon="2.22058">
        <ele>465.9</ele>
        <time>2016-01-26T13:30:16Z</time>
      </trkpt>
      <trkpt lat="44.50978" lon="2.22053">
        <ele>465.9</ele>
        <time>2016-01-26T13:30:24Z</time>
      </trkpt>
      <trkpt lat="44.50987" lon="2.22049">
        <ele>465.9</ele>
        <time>2016-01-26T13:30:31Z</time>
      </trkpt>
      <trkpt lat="44.50996" lon="2.22046">
        <ele>465.9</ele>
        <time>2016-01-26T13:30:38Z</time>
      </trkpt>
      <trkpt lat="44.51004" lon="2.22038">
        <ele>465.42</ele>
        <time>2016-01-26T13:30:45Z</time>
      </trkpt>
      <trkpt lat="44.51012" lon="2.22031">
        <ele>464.45</ele>
        <time>2016-01-26T13:30:52Z</time>
      </trkpt>
      <trkpt lat="44.51021" lon="2.22025">
        <ele>463.49</ele>
        <time>2016-01-26T13:30:59Z</time>
      </trkpt>
      <trkpt lat="44.51029" lon="2.22019">
        <ele>463.01</ele>
        <time>2016-01-26T13:31:07Z</time>
      </trkpt>
      <trkpt lat="44.51039" lon="2.22014">
        <ele>462.05</ele>
        <time>2016-01-26T13:31:15Z</time>
      </trkpt>
      <trkpt lat="44.51048" lon="2.22008">
        <ele>461.57</ele>
        <time>2016-01-26T13:31:22Z</time>
      </trkpt>
      <trkpt lat="44.51057" lon="2.22004">
        <ele>461.57</ele>
        <time>2016-01-26T13:31:29Z</time>
      </trkpt>
      <trkpt lat="44.51067" lon="2.21999">
        <ele>460.61</ele>
        <time>2016-01-26T13:31:37Z</time>
      </trkpt>
      <trkpt lat="44.51077" lon="2.21995">
        <ele>460.61</ele>
        <time>2016-01-26T13:31:45Z</time>
      </trkpt>
      <trkpt lat="44.51086" lon="2.2199">
        <ele>460.13</ele>
        <time>2016-01-26T13:31:52Z</time>
      </trkpt>
      <trkpt lat="44.51095" lon="2.21984">
        <ele>459.65</ele>
        <time>2016-01-26T13:31:59Z</time>
      </trkpt>
      <trkpt lat="44.51103" lon="2.21978">
        <ele>459.65</ele>
        <time>2016-01-26T13:32:06Z</time>
      </trkpt>
      <trkpt lat="44.51112" lon="2.21971">
        <ele>459.17</ele>
        <time>2016-01-26T13:32:14Z</time>
      </trkpt>
      <trkpt lat="44.5112" lon="2.21963">
        <ele>458.69</ele>
        <time>2016-01-26T13:32:22Z</time>
      </trkpt>
      <trkpt lat="44.51129" lon="2.21952">
        <ele>458.69</ele>
        <time>2016-01-26T13:32:30Z</time>
      </trkpt>
      <trkpt lat="44.51135" lon="2.21942">
        <ele>458.21</ele>
        <time>2016-01-26T13:32:38Z</time>
      </trkpt>
      <trkpt lat="44.51142" lon="2.2193">
        <ele>457.72</ele>
        <time>2016-01-26T13:32:46Z</time>
      </trkpt>
      <trkpt lat="44.51146" lon="2.21918">
        <ele>457.72</ele>
        <time>2016-01-26T13:32:53Z</time>
      </trkpt>
      <trkpt lat="44.51151" lon="2.21906">
        <ele>457.72</ele>
        <time>2016-01-26T13:33:00Z</time>
      </trkpt>
      <trkpt lat="44.51155" lon="2.21894">
        <ele>457.72</ele>
        <time>2016-01-26T13:33:07Z</time>
      </trkpt>
      <trkpt lat="44.51159" lon="2.2188">
        <ele>457.24</ele>
        <time>2016-01-26T13:33:15Z</time>
      </trkpt>
      <trkpt lat="44.51161" lon="2.21869">
        <ele>457.24</ele>
        <time>2016-01-26T13:33:27Z</time>
      </trkpt>
      <trkpt lat="44.51164" lon="2.21857">
        <ele>457.24</ele>
        <time>2016-01-26T13:33:36Z</time>
      </trkpt>
      <trkpt lat="44.51169" lon="2.21843">
        <ele>457.24</ele>
        <time>2016-01-26T13:33:45Z</time>
      </trkpt>
      <trkpt lat="44.51175" lon="2.21831">
        <ele>458.69</ele>
        <time>2016-01-26T13:33:54Z</time>
      </trkpt>
      <trkpt lat="44.51183" lon="2.21821">
        <ele>457.72</ele>
        <time>2016-01-26T13:34:06Z</time>
      </trkpt>
      <trkpt lat="44.51192" lon="2.21812">
        <ele>455.8</ele>
        <time>2016-01-26T13:34:17Z</time>
      </trkpt>
      <trkpt lat="44.51201" lon="2.21803">
        <ele>454.36</ele>
        <time>2016-01-26T13:34:27Z</time>
      </trkpt>
      <trkpt lat="44.5121" lon="2.21791">
        <ele>452.44</ele>
        <time>2016-01-26T13:34:38Z</time>
      </trkpt>
      <trkpt lat="44.51217" lon="2.21778">
        <ele>451</ele>
        <time>2016-01-26T13:34:49Z</time>
      </trkpt>
      <trkpt lat="44.51222" lon="2.21763">
        <ele>448.59</ele>
        <time>2016-01-26T13:35:02Z</time>
      </trkpt>
      <trkpt lat="44.51226" lon="2.21743">
        <ele>446.67</ele>
        <time>2016-01-26T13:35:18Z</time>
      </trkpt>
      <trkpt lat="44.51229" lon="2.21711">
        <ele>441.86</ele>
        <time>2016-01-26T13:35:41Z</time>
      </trkpt>
      <trkpt lat="44.51234" lon="2.21694">
        <ele>439.46</ele>
        <time>2016-01-26T13:35:55Z</time>
      </trkpt>
      <trkpt lat="44.51238" lon="2.21679">
        <ele>438.02</ele>
        <time>2016-01-26T13:36:11Z</time>
      </trkpt>
      <trkpt lat="44.51244" lon="2.21665">
        <ele>436.1</ele>
        <time>2016-01-26T13:36:33Z</time>
      </trkpt>
      <trkpt lat="44.51247" lon="2.21652">
        <ele>434.65</ele>
        <time>2016-01-26T13:36:53Z</time>
      </trkpt>
      <trkpt lat="44.51251" lon="2.21638">
        <ele>432.73</ele>
        <time>2016-01-26T13:37:02Z</time>
      </trkpt>
      <trkpt lat="44.51258" lon="2.21626">
        <ele>431.77</ele>
        <time>2016-01-26T13:37:12Z</time>
      </trkpt>
      <trkpt lat="44.51263" lon="2.21613">
        <ele>430.81</ele>
        <time>2016-01-26T13:37:21Z</time>
      </trkpt>
      <trkpt lat="44.51267" lon="2.216">
        <ele>428.89</ele>
        <time>2016-01-26T13:37:31Z</time>
      </trkpt>
      <trkpt lat="44.51272" lon="2.21584">
        <ele>427.92</ele>
        <time>2016-01-26T13:37:41Z</time>
      </trkpt>
      <trkpt lat="44.51284" lon="2.2158">
        <ele>425.52</ele>
        <time>2016-01-26T13:37:51Z</time>
      </trkpt>
      <trkpt lat="44.51288" lon="2.21596">
        <ele>422.64</ele>
        <time>2016-01-26T13:38:04Z</time>
      </trkpt>
      <trkpt lat="44.51295" lon="2.2159">
        <ele>420.23</ele>
        <time>2016-01-26T13:38:15Z</time>
      </trkpt>
      <trkpt lat="44.51298" lon="2.21574">
        <ele>416.87</ele>
        <time>2016-01-26T13:38:33Z</time>
      </trkpt>
      <trkpt lat="44.51296" lon="2.2156">
        <ele>413.5</ele>
        <time>2016-01-26T13:38:48Z</time>
      </trkpt>
      <trkpt lat="44.51294" lon="2.21543">
        <ele>411.58</ele>
        <time>2016-01-26T13:39:01Z</time>
      </trkpt>
      <trkpt lat="44.5129" lon="2.2153">
        <ele>410.62</ele>
        <time>2016-01-26T13:39:11Z</time>
      </trkpt>
      <trkpt lat="44.51282" lon="2.21522">
        <ele>412.06</ele>
        <time>2016-01-26T13:39:22Z</time>
      </trkpt>
      <trkpt lat="44.51273" lon="2.21527">
        <ele>409.66</ele>
        <time>2016-01-26T13:39:33Z</time>
      </trkpt>
      <trkpt lat="44.51264" lon="2.21535">
        <ele>408.22</ele>
        <time>2016-01-26T13:39:46Z</time>
      </trkpt>
      <trkpt lat="44.51255" lon="2.21547">
        <ele>406.29</ele>
        <time>2016-01-26T13:39:59Z</time>
      </trkpt>
      <trkpt lat="44.51247" lon="2.21558">
        <ele>404.37</ele>
        <time>2016-01-26T13:40:11Z</time>
      </trkpt>
      <trkpt lat="44.51241" lon="2.21559">
        <ele>402.45</ele>
        <time>2016-01-26T13:40:24Z</time>
      </trkpt>
      <trkpt lat="44.51244" lon="2.21544">
        <ele>399.08</ele>
        <time>2016-01-26T13:40:39Z</time>
      </trkpt>
      <trkpt lat="44.51247" lon="2.21526">
        <ele>396.2</ele>
        <time>2016-01-26T13:40:53Z</time>
      </trkpt>
      <trkpt lat="44.51251" lon="2.2151">
        <ele>394.28</ele>
        <time>2016-01-26T13:41:03Z</time>
      </trkpt>
      <trkpt lat="44.51254" lon="2.21492">
        <ele>392.36</ele>
        <time>2016-01-26T13:41:16Z</time>
      </trkpt>
      <trkpt lat="44.51261" lon="2.21478">
        <ele>390.91</ele>
        <time>2016-01-26T13:41:27Z</time>
      </trkpt>
      <trkpt lat="44.51268" lon="2.21466">
        <ele>389.95</ele>
        <time>2016-01-26T13:41:35Z</time>
      </trkpt>
      <trkpt lat="44.51275" lon="2.21454">
        <ele>388.03</ele>
        <time>2016-01-26T13:41:46Z</time>
      </trkpt>
      <trkpt lat="44.51281" lon="2.21442">
        <ele>386.11</ele>
        <time>2016-01-26T13:41:58Z</time>
      </trkpt>
      <trkpt lat="44.51288" lon="2.2143">
        <ele>384.18</ele>
        <time>2016-01-26T13:42:08Z</time>
      </trkpt>
      <trkpt lat="44.51294" lon="2.21421">
        <ele>382.26</ele>
        <time>2016-01-26T13:42:20Z</time>
      </trkpt>
      <trkpt lat="44.51302" lon="2.21411">
        <ele>379.38</ele>
        <time>2016-01-26T13:42:35Z</time>
      </trkpt>
      <trkpt lat="44.51313" lon="2.21406">
        <ele>376.97</ele>
        <time>2016-01-26T13:42:52Z</time>
      </trkpt>
      <trkpt lat="44.51324" lon="2.21407">
        <ele>374.09</ele>
        <time>2016-01-26T13:43:07Z</time>
      </trkpt>
      <trkpt lat="44.51335" lon="2.21407">
        <ele>371.69</ele>
        <time>2016-01-26T13:43:20Z</time>
      </trkpt>
      <trkpt lat="44.51347" lon="2.21405">
        <ele>369.28</ele>
        <time>2016-01-26T13:43:31Z</time>
      </trkpt>
      <trkpt lat="44.51361" lon="2.21412">
        <ele>367.36</ele>
        <time>2016-01-26T13:44:03Z</time>
      </trkpt>
      <trkpt lat="44.51362" lon="2.21429">
        <ele>366.88</ele>
        <time>2016-01-26T13:47:59Z</time>
      </trkpt>
      <trkpt lat="44.51357" lon="2.21442">
        <ele>365.44</ele>
        <time>2016-01-26T13:48:12Z</time>
      </trkpt>
      <trkpt lat="44.51356" lon="2.21459">
        <ele>364.48</ele>
        <time>2016-01-26T13:48:24Z</time>
      </trkpt>
      <trkpt lat="44.51363" lon="2.21476">
        <ele>362.55</ele>
        <time>2016-01-26T13:48:37Z</time>
      </trkpt>
      <trkpt lat="44.51374" lon="2.21487">
        <ele>360.15</ele>
        <time>2016-01-26T13:48:53Z</time>
      </trkpt>
      <trkpt lat="44.51385" lon="2.21497">
        <ele>356.79</ele>
        <time>2016-01-26T13:49:08Z</time>
      </trkpt>
      <trkpt lat="44.51395" lon="2.21509">
        <ele>352.94</ele>
        <time>2016-01-26T13:49:23Z</time>
      </trkpt>
      <trkpt lat="44.51405" lon="2.21515">
        <ele>350.54</ele>
        <time>2016-01-26T13:49:41Z</time>
      </trkpt>
      <trkpt lat="44.51404" lon="2.21491">
        <ele>344.29</ele>
        <time>2016-01-26T13:50:16Z</time>
      </trkpt>
      <trkpt lat="44.5142" lon="2.21472">
        <ele>341.41</ele>
        <time>2016-01-26T13:50:43Z</time>
      </trkpt>
      <trkpt lat="44.51438" lon="2.21459">
        <ele>339.48</ele>
        <time>2016-01-26T13:51:05Z</time>
      </trkpt>
      <trkpt lat="44.51454" lon="2.2146">
        <ele>335.64</ele>
        <time>2016-01-26T13:51:20Z</time>
      </trkpt>
      <trkpt lat="44.51468" lon="2.21477">
        <ele>333.23</ele>
        <time>2016-01-26T13:52:03Z</time>
      </trkpt>
      <trkpt lat="44.51471" lon="2.21494">
        <ele>332.27</ele>
        <time>2016-01-26T13:52:14Z</time>
      </trkpt>
      <trkpt lat="44.51467" lon="2.21511">
        <ele>331.31</ele>
        <time>2016-01-26T13:52:23Z</time>
      </trkpt>
      <trkpt lat="44.51461" lon="2.21524">
        <ele>330.35</ele>
        <time>2016-01-26T13:52:34Z</time>
      </trkpt>
      <trkpt lat="44.51455" lon="2.21537">
        <ele>330.35</ele>
        <time>2016-01-26T13:52:46Z</time>
      </trkpt>
      <trkpt lat="44.51446" lon="2.2156">
        <ele>329.87</ele>
        <time>2016-01-26T13:53:06Z</time>
      </trkpt>
      <trkpt lat="44.5144" lon="2.21574">
        <ele>329.87</ele>
        <time>2016-01-26T13:53:19Z</time>
      </trkpt>
      <trkpt lat="44.51436" lon="2.2159">
        <ele>329.87</ele>
        <time>2016-01-26T13:53:32Z</time>
      </trkpt>
      <trkpt lat="44.51429" lon="2.21603">
        <ele>329.39</ele>
        <time>2016-01-26T13:53:45Z</time>
      </trkpt>
      <trkpt lat="44.51424" lon="2.21614">
        <ele>329.39</ele>
        <time>2016-01-26T13:53:55Z</time>
      </trkpt>
      <trkpt lat="44.51423" lon="2.2163">
        <ele>329.39</ele>
        <time>2016-01-26T13:54:07Z</time>
      </trkpt>
      <trkpt lat="44.5142" lon="2.21646">
        <ele>329.39</ele>
        <time>2016-01-26T13:54:17Z</time>
      </trkpt>
      <trkpt lat="44.51421" lon="2.21662">
        <ele>327.95</ele>
        <time>2016-01-26T13:54:28Z</time>
      </trkpt>
      <trkpt lat="44.51426" lon="2.21675">
        <ele>325.54</ele>
        <time>2016-01-26T13:54:39Z</time>
      </trkpt>
      <trkpt lat="44.51433" lon="2.21688">
        <ele>323.62</ele>
        <time>2016-01-26T13:54:49Z</time>
      </trkpt>
      <trkpt lat="44.51439" lon="2.21701">
        <ele>322.18</ele>
        <time>2016-01-26T13:54:58Z</time>
      </trkpt>
      <trkpt lat="44.51448" lon="2.21709">
        <ele>320.26</ele>
        <time>2016-01-26T13:55:06Z</time>
      </trkpt>
      <trkpt lat="44.51456" lon="2.21713">
        <ele>319.3</ele>
        <time>2016-01-26T13:55:15Z</time>
      </trkpt>
      <trkpt lat="44.51465" lon="2.21719">
        <ele>318.81</ele>
        <time>2016-01-26T13:55:24Z</time>
      </trkpt>
      <trkpt lat="44.51473" lon="2.21726">
        <ele>318.81</ele>
        <time>2016-01-26T13:55:32Z</time>
      </trkpt>
      <trkpt lat="44.51481" lon="2.21734">
        <ele>318.33</ele>
        <time>2016-01-26T13:55:41Z</time>
      </trkpt>
      <trkpt lat="44.51485" lon="2.21747">
        <ele>317.85</ele>
        <time>2016-01-26T13:55:50Z</time>
      </trkpt>
      <trkpt lat="44.51489" lon="2.21761">
        <ele>317.85</ele>
        <time>2016-01-26T13:56:00Z</time>
      </trkpt>
      <trkpt lat="44.51492" lon="2.21776">
        <ele>317.37</ele>
        <time>2016-01-26T13:56:12Z</time>
      </trkpt>
      <trkpt lat="44.51497" lon="2.21794">
        <ele>317.85</ele>
        <time>2016-01-26T13:56:25Z</time>
      </trkpt>
      <trkpt lat="44.51503" lon="2.2181">
        <ele>317.85</ele>
        <time>2016-01-26T13:56:39Z</time>
      </trkpt>
      <trkpt lat="44.51509" lon="2.21826">
        <ele>317.85</ele>
        <time>2016-01-26T13:56:53Z</time>
      </trkpt>
      <trkpt lat="44.51514" lon="2.21839">
        <ele>317.37</ele>
        <time>2016-01-26T13:57:03Z</time>
      </trkpt>
      <trkpt lat="44.51525" lon="2.21851">
        <ele>317.37</ele>
        <time>2016-01-26T13:57:16Z</time>
      </trkpt>
      <trkpt lat="44.51545" lon="2.21855">
        <ele>317.37</ele>
        <time>2016-01-26T13:57:40Z</time>
      </trkpt>
      <trkpt lat="44.51559" lon="2.21863">
        <ele>316.89</ele>
        <time>2016-01-26T13:57:51Z</time>
      </trkpt>
      <trkpt lat="44.51573" lon="2.21873">
        <ele>316.89</ele>
        <time>2016-01-26T13:58:02Z</time>
      </trkpt>
      <trkpt lat="44.51588" lon="2.21869">
        <ele>316.89</ele>
        <time>2016-01-26T13:58:18Z</time>
      </trkpt>
      <trkpt lat="44.51602" lon="2.21859">
        <ele>315.93</ele>
        <time>2016-01-26T13:58:28Z</time>
      </trkpt>
      <trkpt lat="44.51612" lon="2.2185">
        <ele>314.49</ele>
        <time>2016-01-26T13:58:37Z</time>
      </trkpt>
      <trkpt lat="44.51619" lon="2.21839">
        <ele>313.05</ele>
        <time>2016-01-26T13:58:46Z</time>
      </trkpt>
      <trkpt lat="44.51624" lon="2.21826">
        <ele>311.12</ele>
        <time>2016-01-26T13:58:56Z</time>
      </trkpt>
      <trkpt lat="44.51633" lon="2.21817">
        <ele>309.68</ele>
        <time>2016-01-26T13:59:06Z</time>
      </trkpt>
      <trkpt lat="44.51649" lon="2.2181">
        <ele>308.24</ele>
        <time>2016-01-26T13:59:23Z</time>
      </trkpt>
      <trkpt lat="44.51659" lon="2.21804">
        <ele>305.84</ele>
        <time>2016-01-26T13:59:34Z</time>
      </trkpt>
      <trkpt lat="44.51672" lon="2.21798">
        <ele>303.91</ele>
        <time>2016-01-26T13:59:47Z</time>
      </trkpt>
      <trkpt lat="44.51685" lon="2.21793">
        <ele>303.43</ele>
        <time>2016-01-26T13:59:56Z</time>
      </trkpt>
      <trkpt lat="44.51697" lon="2.21787">
        <ele>301.51</ele>
        <time>2016-01-26T14:00:05Z</time>
      </trkpt>
      <trkpt lat="44.51709" lon="2.21779">
        <ele>299.59</ele>
        <time>2016-01-26T14:00:16Z</time>
      </trkpt>
      <trkpt lat="44.51725" lon="2.2178">
        <ele>298.15</ele>
        <time>2016-01-26T14:00:32Z</time>
      </trkpt>
      <trkpt lat="44.51739" lon="2.21781">
        <ele>297.67</ele>
        <time>2016-01-26T14:00:42Z</time>
      </trkpt>
      <trkpt lat="44.51756" lon="2.21774">
        <ele>297.18</ele>
        <time>2016-01-26T14:00:51Z</time>
      </trkpt>
      <trkpt lat="44.51767" lon="2.21764">
        <ele>296.22</ele>
        <time>2016-01-26T14:01:00Z</time>
      </trkpt>
      <trkpt lat="44.51774" lon="2.21752">
        <ele>294.78</ele>
        <time>2016-01-26T14:01:12Z</time>
      </trkpt>
      <trkpt lat="44.51783" lon="2.21742">
        <ele>293.34</ele>
        <time>2016-01-26T14:01:22Z</time>
      </trkpt>
      <trkpt lat="44.51792" lon="2.21732">
        <ele>292.86</ele>
        <time>2016-01-26T14:01:33Z</time>
      </trkpt>
      <trkpt lat="44.51821" lon="2.21718">
        <ele>291.42</ele>
        <time>2016-01-26T14:02:09Z</time>
      </trkpt>
      <trkpt lat="44.5186" lon="2.21721">
        <ele>290.46</ele>
        <time>2016-01-26T14:02:45Z</time>
      </trkpt>
      <trkpt lat="44.51873" lon="2.21733">
        <ele>290.46</ele>
        <time>2016-01-26T14:02:59Z</time>
      </trkpt>
      <trkpt lat="44.51885" lon="2.2174">
        <ele>289.97</ele>
        <time>2016-01-26T14:03:16Z</time>
      </trkpt>
      <trkpt lat="44.51897" lon="2.21746">
        <ele>289.97</ele>
        <time>2016-01-26T14:03:27Z</time>
      </trkpt>
      <trkpt lat="44.51907" lon="2.21755">
        <ele>289.01</ele>
        <time>2016-01-26T14:03:37Z</time>
      </trkpt>
      <trkpt lat="44.51919" lon="2.21772">
        <ele>288.53</ele>
        <time>2016-01-26T14:03:52Z</time>
      </trkpt>
      <trkpt lat="44.5193" lon="2.21782">
        <ele>287.57</ele>
        <time>2016-01-26T14:04:05Z</time>
      </trkpt>
      <trkpt lat="44.51941" lon="2.21788">
        <ele>286.13</ele>
        <time>2016-01-26T14:04:14Z</time>
      </trkpt>
      <trkpt lat="44.51952" lon="2.21796">
        <ele>285.17</ele>
        <time>2016-01-26T14:04:25Z</time>
      </trkpt>
      <trkpt lat="44.51964" lon="2.21802">
        <ele>283.73</ele>
        <time>2016-01-26T14:04:36Z</time>
      </trkpt>
      <trkpt lat="44.51977" lon="2.21808">
        <ele>282.77</ele>
        <time>2016-01-26T14:04:49Z</time>
      </trkpt>
      <trkpt lat="44.51992" lon="2.2181">
        <ele>281.8</ele>
        <time>2016-01-26T14:05:05Z</time>
      </trkpt>
      <trkpt lat="44.52005" lon="2.21811">
        <ele>281.32</ele>
        <time>2016-01-26T14:05:14Z</time>
      </trkpt>
      <trkpt lat="44.5202" lon="2.21817">
        <ele>280.36</ele>
        <time>2016-01-26T14:05:24Z</time>
      </trkpt>
      <trkpt lat="44.52033" lon="2.21824">
        <ele>279.88</ele>
        <time>2016-01-26T14:05:33Z</time>
      </trkpt>
      <trkpt lat="44.52046" lon="2.21828">
        <ele>278.92</ele>
        <time>2016-01-26T14:05:43Z</time>
      </trkpt>
      <trkpt lat="44.52055" lon="2.21835">
        <ele>278.44</ele>
        <time>2016-01-26T14:05:52Z</time>
      </trkpt>
      <trkpt lat="44.52065" lon="2.21843">
        <ele>278.44</ele>
        <time>2016-01-26T14:06:01Z</time>
      </trkpt>
      <trkpt lat="44.52075" lon="2.21853">
        <ele>278.92</ele>
        <time>2016-01-26T14:06:11Z</time>
      </trkpt>
      <trkpt lat="44.52083" lon="2.21865">
        <ele>278.92</ele>
        <time>2016-01-26T14:06:20Z</time>
      </trkpt>
      <trkpt lat="44.52085" lon="2.2188">
        <ele>278.92</ele>
        <time>2016-01-26T14:06:30Z</time>
      </trkpt>
      <trkpt lat="44.5209" lon="2.21894">
        <ele>278.44</ele>
        <time>2016-01-26T14:06:39Z</time>
      </trkpt>
      <trkpt lat="44.52097" lon="2.21905">
        <ele>277.96</ele>
        <time>2016-01-26T14:06:50Z</time>
      </trkpt>
      <trkpt lat="44.5211" lon="2.21908">
        <ele>277</ele>
        <time>2016-01-26T14:06:59Z</time>
      </trkpt>
      <trkpt lat="44.52128" lon="2.21908">
        <ele>276.52</ele>
        <time>2016-01-26T14:07:12Z</time>
      </trkpt>
      <trkpt lat="44.52144" lon="2.21914">
        <ele>276.52</ele>
        <time>2016-01-26T14:07:31Z</time>
      </trkpt>
      <trkpt lat="44.52159" lon="2.2192">
        <ele>276.52</ele>
        <time>2016-01-26T14:07:50Z</time>
      </trkpt>
      <trkpt lat="44.52173" lon="2.21923">
        <ele>276.04</ele>
        <time>2016-01-26T14:08:04Z</time>
      </trkpt>
      <trkpt lat="44.52187" lon="2.21926">
        <ele>276.04</ele>
        <time>2016-01-26T14:08:15Z</time>
      </trkpt>
      <trkpt lat="44.52196" lon="2.2192">
        <ele>276.04</ele>
        <time>2016-01-26T14:08:25Z</time>
      </trkpt>
      <trkpt lat="44.522" lon="2.21909">
        <ele>275.56</ele>
        <time>2016-01-26T14:08:34Z</time>
      </trkpt>
      <trkpt lat="44.52207" lon="2.21901">
        <ele>275.56</ele>
        <time>2016-01-26T14:08:45Z</time>
      </trkpt>
      <trkpt lat="44.52211" lon="2.21915">
        <ele>275.56</ele>
        <time>2016-01-26T14:11:24Z</time>
      </trkpt>
      <trkpt lat="44.52206" lon="2.21917">
        <ele>275.56</ele>
        <time>2016-01-26T14:12:36Z</time>
      </trkpt>
      <trkpt lat="44.52211" lon="2.21911">
        <ele>275.07</ele>
        <time>2016-01-26T14:14:56Z</time>
      </trkpt>
      <trkpt lat="44.52211" lon="2.21912">
        <ele>276.52</ele>
        <time>2016-01-26T14:19:39Z</time>
      </trkpt>
      <trkpt lat="44.52221" lon="2.21916">
        <ele>276.52</ele>
        <time>2016-01-26T14:19:59Z</time>
      </trkpt>
      <trkpt lat="44.5223" lon="2.21928">
        <ele>276.52</ele>
        <time>2016-01-26T14:20:10Z</time>
      </trkpt>
      <trkpt lat="44.52239" lon="2.21939">
        <ele>276.52</ele>
        <time>2016-01-26T14:20:21Z</time>
      </trkpt>
      <trkpt lat="44.52247" lon="2.2195">
        <ele>276.52</ele>
        <time>2016-01-26T14:20:31Z</time>
      </trkpt>
      <trkpt lat="44.52255" lon="2.21962">
        <ele>276.52</ele>
        <time>2016-01-26T14:20:41Z</time>
      </trkpt>
      <trkpt lat="44.52261" lon="2.21978">
        <ele>276.52</ele>
        <time>2016-01-26T14:20:50Z</time>
      </trkpt>
      <trkpt lat="44.52265" lon="2.2199">
        <ele>276.04</ele>
        <time>2016-01-26T14:20:58Z</time>
      </trkpt>
      <trkpt lat="44.52268" lon="2.22003">
        <ele>276.04</ele>
        <time>2016-01-26T14:21:07Z</time>
      </trkpt>
      <trkpt lat="44.52272" lon="2.22017">
        <ele>276.04</ele>
        <time>2016-01-26T14:21:16Z</time>
      </trkpt>
      <trkpt lat="44.52277" lon="2.22032">
        <ele>277</ele>
        <time>2016-01-26T14:21:25Z</time>
      </trkpt>
      <trkpt lat="44.5228" lon="2.22045">
        <ele>277</ele>
        <time>2016-01-26T14:21:33Z</time>
      </trkpt>
      <trkpt lat="44.52284" lon="2.2206">
        <ele>277.48</ele>
        <time>2016-01-26T14:21:43Z</time>
      </trkpt>
      <trkpt lat="44.52283" lon="2.22078">
        <ele>277.96</ele>
        <time>2016-01-26T14:21:52Z</time>
      </trkpt>
      <trkpt lat="44.52282" lon="2.22093">
        <ele>277.96</ele>
        <time>2016-01-26T14:22:01Z</time>
      </trkpt>
      <trkpt lat="44.5228" lon="2.22108">
        <ele>278.44</ele>
        <time>2016-01-26T14:22:10Z</time>
      </trkpt>
      <trkpt lat="44.5228" lon="2.22122">
        <ele>278.92</ele>
        <time>2016-01-26T14:22:19Z</time>
      </trkpt>
      <trkpt lat="44.5228" lon="2.22136">
        <ele>278.92</ele>
        <time>2016-01-26T14:22:27Z</time>
      </trkpt>
      <trkpt lat="44.52281" lon="2.22149">
        <ele>278.92</ele>
        <time>2016-01-26T14:22:35Z</time>
      </trkpt>
      <trkpt lat="44.52285" lon="2.22161">
        <ele>279.4</ele>
        <time>2016-01-26T14:22:44Z</time>
      </trkpt>
      <trkpt lat="44.52293" lon="2.2217">
        <ele>279.88</ele>
        <time>2016-01-26T14:22:53Z</time>
      </trkpt>
      <trkpt lat="44.52299" lon="2.22181">
        <ele>279.88</ele>
        <time>2016-01-26T14:23:03Z</time>
      </trkpt>
      <trkpt lat="44.52308" lon="2.22191">
        <ele>279.88</ele>
        <time>2016-01-26T14:23:12Z</time>
      </trkpt>
      <trkpt lat="44.52317" lon="2.222">
        <ele>280.36</ele>
        <time>2016-01-26T14:23:21Z</time>
      </trkpt>
      <trkpt lat="44.52324" lon="2.22209">
        <ele>280.36</ele>
        <time>2016-01-26T14:23:30Z</time>
      </trkpt>
      <trkpt lat="44.52333" lon="2.22218">
        <ele>280.36</ele>
        <time>2016-01-26T14:23:40Z</time>
      </trkpt>
      <trkpt lat="44.52342" lon="2.22228">
        <ele>279.88</ele>
        <time>2016-01-26T14:23:49Z</time>
      </trkpt>
      <trkpt lat="44.52352" lon="2.22238">
        <ele>279.88</ele>
        <time>2016-01-26T14:23:59Z</time>
      </trkpt>
      <trkpt lat="44.52361" lon="2.22249">
        <ele>279.88</ele>
        <time>2016-01-26T14:24:09Z</time>
      </trkpt>
      <trkpt lat="44.52369" lon="2.22259">
        <ele>279.88</ele>
        <time>2016-01-26T14:24:19Z</time>
      </trkpt>
      <trkpt lat="44.52378" lon="2.22273">
        <ele>279.88</ele>
        <time>2016-01-26T14:24:29Z</time>
      </trkpt>
      <trkpt lat="44.52385" lon="2.22287">
        <ele>280.36</ele>
        <time>2016-01-26T14:24:38Z</time>
      </trkpt>
      <trkpt lat="44.52389" lon="2.22304">
        <ele>279.88</ele>
        <time>2016-01-26T14:24:51Z</time>
      </trkpt>
      <trkpt lat="44.52387" lon="2.22322">
        <ele>279.88</ele>
        <time>2016-01-26T14:25:00Z</time>
      </trkpt>
      <trkpt lat="44.52386" lon="2.22339">
        <ele>279.88</ele>
        <time>2016-01-26T14:25:09Z</time>
      </trkpt>
      <trkpt lat="44.52389" lon="2.22352">
        <ele>280.36</ele>
        <time>2016-01-26T14:25:16Z</time>
      </trkpt>
      <trkpt lat="44.52389" lon="2.22371">
        <ele>279.88</ele>
        <time>2016-01-26T14:25:26Z</time>
      </trkpt>
      <trkpt lat="44.52388" lon="2.22385">
        <ele>279.88</ele>
        <time>2016-01-26T14:25:36Z</time>
      </trkpt>
      <trkpt lat="44.52387" lon="2.22401">
        <ele>279.88</ele>
        <time>2016-01-26T14:25:45Z</time>
      </trkpt>
      <trkpt lat="44.52386" lon="2.22415">
        <ele>279.88</ele>
        <time>2016-01-26T14:25:54Z</time>
      </trkpt>
      <trkpt lat="44.52386" lon="2.22432">
        <ele>280.84</ele>
        <time>2016-01-26T14:26:03Z</time>
      </trkpt>
      <trkpt lat="44.52385" lon="2.22447">
        <ele>281.8</ele>
        <time>2016-01-26T14:26:12Z</time>
      </trkpt>
      <trkpt lat="44.52383" lon="2.22462">
        <ele>282.28</ele>
        <time>2016-01-26T14:26:21Z</time>
      </trkpt>
      <trkpt lat="44.5238" lon="2.22478">
        <ele>283.25</ele>
        <time>2016-01-26T14:26:30Z</time>
      </trkpt>
      <trkpt lat="44.52373" lon="2.22494">
        <ele>283.73</ele>
        <time>2016-01-26T14:26:39Z</time>
      </trkpt>
      <trkpt lat="44.52367" lon="2.2251">
        <ele>284.69</ele>
        <time>2016-01-26T14:26:48Z</time>
      </trkpt>
      <trkpt lat="44.52363" lon="2.22524">
        <ele>285.17</ele>
        <time>2016-01-26T14:26:56Z</time>
      </trkpt>
      <trkpt lat="44.52358" lon="2.22537">
        <ele>285.65</ele>
        <time>2016-01-26T14:27:04Z</time>
      </trkpt>
      <trkpt lat="44.52354" lon="2.22549">
        <ele>285.65</ele>
        <time>2016-01-26T14:27:12Z</time>
      </trkpt>
      <trkpt lat="44.52351" lon="2.22561">
        <ele>286.13</ele>
        <time>2016-01-26T14:27:20Z</time>
      </trkpt>
      <trkpt lat="44.52351" lon="2.22577">
        <ele>287.09</ele>
        <time>2016-01-26T14:27:29Z</time>
      </trkpt>
      <trkpt lat="44.5235" lon="2.22593">
        <ele>287.09</ele>
        <time>2016-01-26T14:27:38Z</time>
      </trkpt>
      <trkpt lat="44.52344" lon="2.22606">
        <ele>286.13</ele>
        <time>2016-01-26T14:27:46Z</time>
      </trkpt>
      <trkpt lat="44.52335" lon="2.22612">
        <ele>285.65</ele>
        <time>2016-01-26T14:27:54Z</time>
      </trkpt>
      <trkpt lat="44.52324" lon="2.22611">
        <ele>284.21</ele>
        <time>2016-01-26T14:28:04Z</time>
      </trkpt>
      <trkpt lat="44.52314" lon="2.22613">
        <ele>283.73</ele>
        <time>2016-01-26T14:28:12Z</time>
      </trkpt>
      <trkpt lat="44.52303" lon="2.22614">
        <ele>281.8</ele>
        <time>2016-01-26T14:28:20Z</time>
      </trkpt>
      <trkpt lat="44.52294" lon="2.22607">
        <ele>280.84</ele>
        <time>2016-01-26T14:28:29Z</time>
      </trkpt>
      <trkpt lat="44.52287" lon="2.22596">
        <ele>278.92</ele>
        <time>2016-01-26T14:28:38Z</time>
      </trkpt>
      <trkpt lat="44.52279" lon="2.22598">
        <ele>278.44</ele>
        <time>2016-01-26T14:28:48Z</time>
      </trkpt>
      <trkpt lat="44.52271" lon="2.22605">
        <ele>278.44</ele>
        <time>2016-01-26T14:28:57Z</time>
      </trkpt>
      <trkpt lat="44.52263" lon="2.22614">
        <ele>278.44</ele>
        <time>2016-01-26T14:29:06Z</time>
      </trkpt>
      <trkpt lat="44.52255" lon="2.22622">
        <ele>278.44</ele>
        <time>2016-01-26T14:29:15Z</time>
      </trkpt>
      <trkpt lat="44.52246" lon="2.22629">
        <ele>278.44</ele>
        <time>2016-01-26T14:29:24Z</time>
      </trkpt>
      <trkpt lat="44.52238" lon="2.2264">
        <ele>278.44</ele>
        <time>2016-01-26T14:29:33Z</time>
      </trkpt>
      <trkpt lat="44.52231" lon="2.2265">
        <ele>278.44</ele>
        <time>2016-01-26T14:29:42Z</time>
      </trkpt>
      <trkpt lat="44.52221" lon="2.22659">
        <ele>278.44</ele>
        <time>2016-01-26T14:29:51Z</time>
      </trkpt>
      <trkpt lat="44.52212" lon="2.22664">
        <ele>277.96</ele>
        <time>2016-01-26T14:29:59Z</time>
      </trkpt>
      <trkpt lat="44.52202" lon="2.22666">
        <ele>277.96</ele>
        <time>2016-01-26T14:30:07Z</time>
      </trkpt>
      <trkpt lat="44.52192" lon="2.22668">
        <ele>277.96</ele>
        <time>2016-01-26T14:30:16Z</time>
      </trkpt>
      <trkpt lat="44.52183" lon="2.22673">
        <ele>277.96</ele>
        <time>2016-01-26T14:30:25Z</time>
      </trkpt>
      <trkpt lat="44.52174" lon="2.22681">
        <ele>277.96</ele>
        <time>2016-01-26T14:30:35Z</time>
      </trkpt>
      <trkpt lat="44.52167" lon="2.22692">
        <ele>277.96</ele>
        <time>2016-01-26T14:30:44Z</time>
      </trkpt>
      <trkpt lat="44.52158" lon="2.22701">
        <ele>277.96</ele>
        <time>2016-01-26T14:30:53Z</time>
      </trkpt>
      <trkpt lat="44.52149" lon="2.22709">
        <ele>277.96</ele>
        <time>2016-01-26T14:31:02Z</time>
      </trkpt>
      <trkpt lat="44.5214" lon="2.22717">
        <ele>277.96</ele>
        <time>2016-01-26T14:31:11Z</time>
      </trkpt>
      <trkpt lat="44.52132" lon="2.22725">
        <ele>277.96</ele>
        <time>2016-01-26T14:31:20Z</time>
      </trkpt>
      <trkpt lat="44.52125" lon="2.22733">
        <ele>277.48</ele>
        <time>2016-01-26T14:31:29Z</time>
      </trkpt>
      <trkpt lat="44.52117" lon="2.22743">
        <ele>278.92</ele>
        <time>2016-01-26T14:31:38Z</time>
      </trkpt>
      <trkpt lat="44.5211" lon="2.22752">
        <ele>279.4</ele>
        <time>2016-01-26T14:31:46Z</time>
      </trkpt>
      <trkpt lat="44.52103" lon="2.22763">
        <ele>278.92</ele>
        <time>2016-01-26T14:31:55Z</time>
      </trkpt>
      <trkpt lat="44.52094" lon="2.22773">
        <ele>278.92</ele>
        <time>2016-01-26T14:32:05Z</time>
      </trkpt>
      <trkpt lat="44.52085" lon="2.22782">
        <ele>278.92</ele>
        <time>2016-01-26T14:32:14Z</time>
      </trkpt>
      <trkpt lat="44.52077" lon="2.22792">
        <ele>278.92</ele>
        <time>2016-01-26T14:32:23Z</time>
      </trkpt>
      <trkpt lat="44.52071" lon="2.22803">
        <ele>278.92</ele>
        <time>2016-01-26T14:32:32Z</time>
      </trkpt>
      <trkpt lat="44.52064" lon="2.22815">
        <ele>278.92</ele>
        <time>2016-01-26T14:32:41Z</time>
      </trkpt>
      <trkpt lat="44.52056" lon="2.22824">
        <ele>278.92</ele>
        <time>2016-01-26T14:32:50Z</time>
      </trkpt>
      <trkpt lat="44.52047" lon="2.22833">
        <ele>278.92</ele>
        <time>2016-01-26T14:33:00Z</time>
      </trkpt>
      <trkpt lat="44.52038" lon="2.22844">
        <ele>279.4</ele>
        <time>2016-01-26T14:33:11Z</time>
      </trkpt>
      <trkpt lat="44.52031" lon="2.22858">
        <ele>280.36</ele>
        <time>2016-01-26T14:33:22Z</time>
      </trkpt>
      <trkpt lat="44.52026" lon="2.22874">
        <ele>280.36</ele>
        <time>2016-01-26T14:33:32Z</time>
      </trkpt>
      <trkpt lat="44.52018" lon="2.22885">
        <ele>280.36</ele>
        <time>2016-01-26T14:33:40Z</time>
      </trkpt>
      <trkpt lat="44.52009" lon="2.22896">
        <ele>279.4</ele>
        <time>2016-01-26T14:33:49Z</time>
      </trkpt>
      <trkpt lat="44.52" lon="2.22905">
        <ele>279.4</ele>
        <time>2016-01-26T14:33:58Z</time>
      </trkpt>
      <trkpt lat="44.51991" lon="2.22914">
        <ele>279.4</ele>
        <time>2016-01-26T14:34:08Z</time>
      </trkpt>
      <trkpt lat="44.51982" lon="2.22923">
        <ele>279.4</ele>
        <time>2016-01-26T14:34:18Z</time>
      </trkpt>
      <trkpt lat="44.51977" lon="2.22935">
        <ele>280.84</ele>
        <time>2016-01-26T14:34:29Z</time>
      </trkpt>
      <trkpt lat="44.51971" lon="2.2295">
        <ele>282.28</ele>
        <time>2016-01-26T14:34:41Z</time>
      </trkpt>
      <trkpt lat="44.51965" lon="2.22965">
        <ele>282.77</ele>
        <time>2016-01-26T14:34:53Z</time>
      </trkpt>
      <trkpt lat="44.51958" lon="2.2298">
        <ele>284.21</ele>
        <time>2016-01-26T14:35:05Z</time>
      </trkpt>
      <trkpt lat="44.51953" lon="2.22995">
        <ele>285.17</ele>
        <time>2016-01-26T14:35:16Z</time>
      </trkpt>
      <trkpt lat="44.51946" lon="2.23009">
        <ele>285.65</ele>
        <time>2016-01-26T14:35:27Z</time>
      </trkpt>
      <trkpt lat="44.51937" lon="2.23022">
        <ele>285.65</ele>
        <time>2016-01-26T14:35:38Z</time>
      </trkpt>
      <trkpt lat="44.51928" lon="2.23031">
        <ele>283.73</ele>
        <time>2016-01-26T14:35:49Z</time>
      </trkpt>
      <trkpt lat="44.5192" lon="2.2304">
        <ele>282.77</ele>
        <time>2016-01-26T14:36:00Z</time>
      </trkpt>
      <trkpt lat="44.51913" lon="2.23054">
        <ele>281.8</ele>
        <time>2016-01-26T14:36:14Z</time>
      </trkpt>
      <trkpt lat="44.51907" lon="2.23064">
        <ele>281.8</ele>
        <time>2016-01-26T14:36:31Z</time>
      </trkpt>
      <trkpt lat="44.51905" lon="2.2308">
        <ele>283.25</ele>
        <time>2016-01-26T14:36:41Z</time>
      </trkpt>
      <trkpt lat="44.51902" lon="2.23095">
        <ele>285.17</ele>
        <time>2016-01-26T14:36:51Z</time>
      </trkpt>
      <trkpt lat="44.51901" lon="2.23113">
        <ele>286.61</ele>
        <time>2016-01-26T14:37:02Z</time>
      </trkpt>
      <trkpt lat="44.51896" lon="2.2313">
        <ele>286.13</ele>
        <time>2016-01-26T14:37:14Z</time>
      </trkpt>
      <trkpt lat="44.51894" lon="2.23146">
        <ele>286.13</ele>
        <time>2016-01-26T14:37:25Z</time>
      </trkpt>
      <trkpt lat="44.51889" lon="2.23161">
        <ele>286.13</ele>
        <time>2016-01-26T14:37:35Z</time>
      </trkpt>
      <trkpt lat="44.51884" lon="2.23175">
        <ele>287.09</ele>
        <time>2016-01-26T14:37:46Z</time>
      </trkpt>
      <trkpt lat="44.51881" lon="2.23191">
        <ele>287.09</ele>
        <time>2016-01-26T14:37:56Z</time>
      </trkpt>
      <trkpt lat="44.51882" lon="2.23205">
        <ele>288.05</ele>
        <time>2016-01-26T14:38:06Z</time>
      </trkpt>
      <trkpt lat="44.51874" lon="2.23215">
        <ele>288.53</ele>
        <time>2016-01-26T14:38:20Z</time>
      </trkpt>
      <trkpt lat="44.51866" lon="2.23223">
        <ele>289.01</ele>
        <time>2016-01-26T14:38:32Z</time>
      </trkpt>
      <trkpt lat="44.51856" lon="2.23234">
        <ele>289.49</ele>
        <time>2016-01-26T14:38:43Z</time>
      </trkpt>
      <trkpt lat="44.51849" lon="2.23247">
        <ele>289.97</ele>
        <time>2016-01-26T14:38:54Z</time>
      </trkpt>
      <trkpt lat="44.51842" lon="2.23258">
        <ele>290.94</ele>
        <time>2016-01-26T14:39:04Z</time>
      </trkpt>
      <trkpt lat="44.51836" lon="2.2327">
        <ele>291.42</ele>
        <time>2016-01-26T14:39:15Z</time>
      </trkpt>
      <trkpt lat="44.51829" lon="2.23282">
        <ele>291.9</ele>
        <time>2016-01-26T14:39:27Z</time>
      </trkpt>
      <trkpt lat="44.51821" lon="2.23295">
        <ele>292.86</ele>
        <time>2016-01-26T14:39:39Z</time>
      </trkpt>
      <trkpt lat="44.51814" lon="2.23308">
        <ele>293.82</ele>
        <time>2016-01-26T14:39:52Z</time>
      </trkpt>
      <trkpt lat="44.51804" lon="2.2332">
        <ele>295.26</ele>
        <time>2016-01-26T14:40:04Z</time>
      </trkpt>
      <trkpt lat="44.51798" lon="2.23333">
        <ele>295.74</ele>
        <time>2016-01-26T14:40:16Z</time>
      </trkpt>
      <trkpt lat="44.51791" lon="2.23345">
        <ele>296.7</ele>
        <time>2016-01-26T14:40:27Z</time>
      </trkpt>
      <trkpt lat="44.51784" lon="2.23358">
        <ele>297.67</ele>
        <time>2016-01-26T14:40:41Z</time>
      </trkpt>
      <trkpt lat="44.51776" lon="2.2337">
        <ele>298.63</ele>
        <time>2016-01-26T14:40:54Z</time>
      </trkpt>
      <trkpt lat="44.51768" lon="2.23385">
        <ele>300.55</ele>
        <time>2016-01-26T14:41:08Z</time>
      </trkpt>
      <trkpt lat="44.5176" lon="2.23399">
        <ele>301.51</ele>
        <time>2016-01-26T14:41:20Z</time>
      </trkpt>
      <trkpt lat="44.51747" lon="2.234">
        <ele>301.99</ele>
        <time>2016-01-26T14:41:33Z</time>
      </trkpt>
      <trkpt lat="44.51734" lon="2.234">
        <ele>300.07</ele>
        <time>2016-01-26T14:41:44Z</time>
      </trkpt>
      <trkpt lat="44.51723" lon="2.23402">
        <ele>299.11</ele>
        <time>2016-01-26T14:41:55Z</time>
      </trkpt>
      <trkpt lat="44.51711" lon="2.23405">
        <ele>298.15</ele>
        <time>2016-01-26T14:42:06Z</time>
      </trkpt>
      <trkpt lat="44.517" lon="2.23407">
        <ele>296.22</ele>
        <time>2016-01-26T14:42:17Z</time>
      </trkpt>
      <trkpt lat="44.51686" lon="2.23405">
        <ele>292.38</ele>
        <time>2016-01-26T14:42:33Z</time>
      </trkpt>
      <trkpt lat="44.51675" lon="2.23399">
        <ele>290.46</ele>
        <time>2016-01-26T14:42:44Z</time>
      </trkpt>
      <trkpt lat="44.51664" lon="2.23392">
        <ele>288.05</ele>
        <time>2016-01-26T14:42:59Z</time>
      </trkpt>
      <trkpt lat="44.51652" lon="2.23394">
        <ele>286.61</ele>
        <time>2016-01-26T14:43:11Z</time>
      </trkpt>
      <trkpt lat="44.51639" lon="2.23397">
        <ele>284.21</ele>
        <time>2016-01-26T14:43:24Z</time>
      </trkpt>
      <trkpt lat="44.5163" lon="2.23409">
        <ele>282.77</ele>
        <time>2016-01-26T14:43:35Z</time>
      </trkpt>
      <trkpt lat="44.51623" lon="2.23421">
        <ele>282.28</ele>
        <time>2016-01-26T14:43:45Z</time>
      </trkpt>
      <trkpt lat="44.51615" lon="2.2343">
        <ele>282.28</ele>
        <time>2016-01-26T14:43:54Z</time>
      </trkpt>
      <trkpt lat="44.51608" lon="2.23419">
        <ele>281.8</ele>
        <time>2016-01-26T14:46:03Z</time>
      </trkpt>
      <trkpt lat="44.51597" lon="2.23419">
        <ele>282.77</ele>
        <time>2016-01-26T14:48:37Z</time>
      </trkpt>
      <trkpt lat="44.51582" lon="2.23416">
        <ele>283.73</ele>
        <time>2016-01-26T14:48:57Z</time>
      </trkpt>
      <trkpt lat="44.5157" lon="2.23415">
        <ele>283.73</ele>
        <time>2016-01-26T14:49:10Z</time>
      </trkpt>
      <trkpt lat="44.51558" lon="2.23418">
        <ele>283.73</ele>
        <time>2016-01-26T14:49:23Z</time>
      </trkpt>
      <trkpt lat="44.51548" lon="2.23422">
        <ele>283.73</ele>
        <time>2016-01-26T14:49:34Z</time>
      </trkpt>
      <trkpt lat="44.51536" lon="2.23427">
        <ele>284.21</ele>
        <time>2016-01-26T14:49:46Z</time>
      </trkpt>
      <trkpt lat="44.51527" lon="2.23418">
        <ele>284.21</ele>
        <time>2016-01-26T14:50:18Z</time>
      </trkpt>
      <trkpt lat="44.51524" lon="2.23401">
        <ele>284.69</ele>
        <time>2016-01-26T14:50:30Z</time>
      </trkpt>
      <trkpt lat="44.51526" lon="2.23382">
        <ele>284.69</ele>
        <time>2016-01-26T14:50:40Z</time>
      </trkpt>
      <trkpt lat="44.51527" lon="2.23368">
        <ele>284.21</ele>
        <time>2016-01-26T14:50:49Z</time>
      </trkpt>
      <trkpt lat="44.5153" lon="2.23352">
        <ele>284.21</ele>
        <time>2016-01-26T14:50:59Z</time>
      </trkpt>
      <trkpt lat="44.51533" lon="2.23337">
        <ele>284.21</ele>
        <time>2016-01-26T14:51:10Z</time>
      </trkpt>
      <trkpt lat="44.51536" lon="2.23323">
        <ele>285.65</ele>
        <time>2016-01-26T14:51:20Z</time>
      </trkpt>
      <trkpt lat="44.51536" lon="2.23308">
        <ele>285.65</ele>
        <time>2016-01-26T14:51:30Z</time>
      </trkpt>
      <trkpt lat="44.51534" lon="2.23294">
        <ele>285.65</ele>
        <time>2016-01-26T14:51:40Z</time>
      </trkpt>
      <trkpt lat="44.51527" lon="2.23284">
        <ele>285.65</ele>
        <time>2016-01-26T14:51:53Z</time>
      </trkpt>
      <trkpt lat="44.5152" lon="2.23273">
        <ele>285.17</ele>
        <time>2016-01-26T14:52:15Z</time>
      </trkpt>
      <trkpt lat="44.51511" lon="2.23266">
        <ele>285.65</ele>
        <time>2016-01-26T14:52:25Z</time>
      </trkpt>
      <trkpt lat="44.51506" lon="2.23257">
        <ele>285.65</ele>
        <time>2016-01-26T14:52:52Z</time>
      </trkpt>
      <trkpt lat="44.51497" lon="2.23252">
        <ele>286.13</ele>
        <time>2016-01-26T14:53:05Z</time>
      </trkpt>
      <trkpt lat="44.51488" lon="2.2325">
        <ele>286.61</ele>
        <time>2016-01-26T14:53:24Z</time>
      </trkpt>
      <trkpt lat="44.5148" lon="2.23242">
        <ele>287.09</ele>
        <time>2016-01-26T14:53:34Z</time>
      </trkpt>
      <trkpt lat="44.51473" lon="2.23242">
        <ele>287.09</ele>
        <time>2016-01-26T14:53:50Z</time>
      </trkpt>
      <trkpt lat="44.51462" lon="2.23241">
        <ele>288.05</ele>
        <time>2016-01-26T14:54:00Z</time>
      </trkpt>
      <trkpt lat="44.51452" lon="2.23239">
        <ele>288.53</ele>
        <time>2016-01-26T14:54:09Z</time>
      </trkpt>
      <trkpt lat="44.51442" lon="2.23236">
        <ele>289.01</ele>
        <time>2016-01-26T14:54:18Z</time>
      </trkpt>
      <trkpt lat="44.51432" lon="2.23232">
        <ele>289.01</ele>
        <time>2016-01-26T14:54:27Z</time>
      </trkpt>
      <trkpt lat="44.51422" lon="2.23228">
        <ele>289.97</ele>
        <time>2016-01-26T14:54:36Z</time>
      </trkpt>
      <trkpt lat="44.51411" lon="2.23227">
        <ele>290.46</ele>
        <time>2016-01-26T14:54:45Z</time>
      </trkpt>
      <trkpt lat="44.51401" lon="2.23223">
        <ele>290.94</ele>
        <time>2016-01-26T14:54:54Z</time>
      </trkpt>
      <trkpt lat="44.51392" lon="2.23219">
        <ele>291.42</ele>
        <time>2016-01-26T14:55:03Z</time>
      </trkpt>
      <trkpt lat="44.51383" lon="2.23218">
        <ele>291.42</ele>
        <time>2016-01-26T14:55:11Z</time>
      </trkpt>
      <trkpt lat="44.51374" lon="2.23217">
        <ele>291.9</ele>
        <time>2016-01-26T14:55:19Z</time>
      </trkpt>
      <trkpt lat="44.51364" lon="2.23215">
        <ele>292.38</ele>
        <time>2016-01-26T14:55:29Z</time>
      </trkpt>
      <trkpt lat="44.51354" lon="2.23208">
        <ele>292.86</ele>
        <time>2016-01-26T14:55:43Z</time>
      </trkpt>
      <trkpt lat="44.51336" lon="2.23203">
        <ele>293.82</ele>
        <time>2016-01-26T14:56:02Z</time>
      </trkpt>
      <trkpt lat="44.51324" lon="2.23207">
        <ele>294.78</ele>
        <time>2016-01-26T14:56:15Z</time>
      </trkpt>
      <trkpt lat="44.51312" lon="2.23207">
        <ele>296.7</ele>
        <time>2016-01-26T14:56:30Z</time>
      </trkpt>
      <trkpt lat="44.513" lon="2.23207">
        <ele>299.11</ele>
        <time>2016-01-26T14:56:46Z</time>
      </trkpt>
      <trkpt lat="44.51287" lon="2.23207">
        <ele>301.03</ele>
        <time>2016-01-26T14:57:02Z</time>
      </trkpt>
      <trkpt lat="44.51271" lon="2.23206">
        <ele>302.47</ele>
        <time>2016-01-26T14:57:24Z</time>
      </trkpt>
      <trkpt lat="44.51257" lon="2.23208">
        <ele>304.88</ele>
        <time>2016-01-26T14:57:38Z</time>
      </trkpt>
      <trkpt lat="44.51244" lon="2.23211">
        <ele>306.32</ele>
        <time>2016-01-26T14:58:03Z</time>
      </trkpt>
      <trkpt lat="44.51232" lon="2.23207">
        <ele>308.72</ele>
        <time>2016-01-26T14:58:17Z</time>
      </trkpt>
      <trkpt lat="44.51217" lon="2.23198">
        <ele>311.12</ele>
        <time>2016-01-26T14:58:34Z</time>
      </trkpt>
      <trkpt lat="44.51206" lon="2.23193">
        <ele>313.05</ele>
        <time>2016-01-26T14:58:47Z</time>
      </trkpt>
      <trkpt lat="44.51203" lon="2.23179">
        <ele>314.97</ele>
        <time>2016-01-26T14:59:02Z</time>
      </trkpt>
      <trkpt lat="44.51213" lon="2.23165">
        <ele>316.41</ele>
        <time>2016-01-26T14:59:19Z</time>
      </trkpt>
      <trkpt lat="44.51227" lon="2.23159">
        <ele>318.81</ele>
        <time>2016-01-26T14:59:50Z</time>
      </trkpt>
      <trkpt lat="44.51237" lon="2.23151">
        <ele>321.22</ele>
        <time>2016-01-26T15:00:08Z</time>
      </trkpt>
      <trkpt lat="44.51246" lon="2.23143">
        <ele>323.62</ele>
        <time>2016-01-26T15:00:23Z</time>
      </trkpt>
      <trkpt lat="44.51259" lon="2.23132">
        <ele>326.02</ele>
        <time>2016-01-26T15:00:42Z</time>
      </trkpt>
      <trkpt lat="44.51269" lon="2.23125">
        <ele>327.95</ele>
        <time>2016-01-26T15:00:57Z</time>
      </trkpt>
      <trkpt lat="44.51281" lon="2.23116">
        <ele>330.35</ele>
        <time>2016-01-26T15:01:13Z</time>
      </trkpt>
      <trkpt lat="44.51289" lon="2.23108">
        <ele>331.79</ele>
        <time>2016-01-26T15:01:27Z</time>
      </trkpt>
      <trkpt lat="44.51299" lon="2.231">
        <ele>333.23</ele>
        <time>2016-01-26T15:01:41Z</time>
      </trkpt>
      <trkpt lat="44.51307" lon="2.23093">
        <ele>334.68</ele>
        <time>2016-01-26T15:01:53Z</time>
      </trkpt>
      <trkpt lat="44.51316" lon="2.23086">
        <ele>336.12</ele>
        <time>2016-01-26T15:02:06Z</time>
      </trkpt>
      <trkpt lat="44.51324" lon="2.23077">
        <ele>337.08</ele>
        <time>2016-01-26T15:02:18Z</time>
      </trkpt>
      <trkpt lat="44.51332" lon="2.23068">
        <ele>338.04</ele>
        <time>2016-01-26T15:02:29Z</time>
      </trkpt>
      <trkpt lat="44.51338" lon="2.23057">
        <ele>339</ele>
        <time>2016-01-26T15:02:40Z</time>
      </trkpt>
      <trkpt lat="44.51344" lon="2.23047">
        <ele>339.48</ele>
        <time>2016-01-26T15:02:51Z</time>
      </trkpt>
      <trkpt lat="44.51351" lon="2.23037">
        <ele>340.92</ele>
        <time>2016-01-26T15:03:03Z</time>
      </trkpt>
      <trkpt lat="44.51358" lon="2.23026">
        <ele>341.89</ele>
        <time>2016-01-26T15:03:15Z</time>
      </trkpt>
      <trkpt lat="44.51363" lon="2.23013">
        <ele>342.85</ele>
        <time>2016-01-26T15:03:26Z</time>
      </trkpt>
      <trkpt lat="44.51366" lon="2.22998">
        <ele>344.29</ele>
        <time>2016-01-26T15:03:38Z</time>
      </trkpt>
      <trkpt lat="44.5137" lon="2.22983">
        <ele>345.25</ele>
        <time>2016-01-26T15:03:51Z</time>
      </trkpt>
      <trkpt lat="44.51375" lon="2.2297">
        <ele>346.69</ele>
        <time>2016-01-26T15:04:04Z</time>
      </trkpt>
      <trkpt lat="44.51378" lon="2.22954">
        <ele>348.13</ele>
        <time>2016-01-26T15:04:20Z</time>
      </trkpt>
      <trkpt lat="44.51377" lon="2.22936">
        <ele>349.58</ele>
        <time>2016-01-26T15:04:35Z</time>
      </trkpt>
      <trkpt lat="44.51374" lon="2.22918">
        <ele>351.5</ele>
        <time>2016-01-26T15:04:52Z</time>
      </trkpt>
      <trkpt lat="44.51376" lon="2.22897">
        <ele>352.94</ele>
        <time>2016-01-26T15:05:09Z</time>
      </trkpt>
      <trkpt lat="44.51384" lon="2.22881">
        <ele>354.38</ele>
        <time>2016-01-26T15:05:23Z</time>
      </trkpt>
      <trkpt lat="44.51396" lon="2.22895">
        <ele>354.86</ele>
        <time>2016-01-26T15:05:35Z</time>
      </trkpt>
      <trkpt lat="44.51402" lon="2.22908">
        <ele>355.34</ele>
        <time>2016-01-26T15:05:45Z</time>
      </trkpt>
      <trkpt lat="44.5141" lon="2.2292">
        <ele>355.34</ele>
        <time>2016-01-26T15:05:55Z</time>
      </trkpt>
      <trkpt lat="44.5142" lon="2.22933">
        <ele>355.83</ele>
        <time>2016-01-26T15:06:06Z</time>
      </trkpt>
      <trkpt lat="44.51426" lon="2.22946">
        <ele>355.83</ele>
        <time>2016-01-26T15:06:17Z</time>
      </trkpt>
      <trkpt lat="44.51434" lon="2.22958">
        <ele>356.31</ele>
        <time>2016-01-26T15:06:27Z</time>
      </trkpt>
      <trkpt lat="44.51442" lon="2.22968">
        <ele>356.31</ele>
        <time>2016-01-26T15:06:36Z</time>
      </trkpt>
      <trkpt lat="44.5145" lon="2.22977">
        <ele>356.31</ele>
        <time>2016-01-26T15:06:46Z</time>
      </trkpt>
      <trkpt lat="44.51459" lon="2.22989">
        <ele>356.31</ele>
        <time>2016-01-26T15:06:57Z</time>
      </trkpt>
      <trkpt lat="44.5147" lon="2.22998">
        <ele>356.79</ele>
        <time>2016-01-26T15:07:07Z</time>
      </trkpt>
      <trkpt lat="44.5148" lon="2.22998">
        <ele>357.27</ele>
        <time>2016-01-26T15:07:16Z</time>
      </trkpt>
      <trkpt lat="44.51492" lon="2.22992">
        <ele>357.27</ele>
        <time>2016-01-26T15:07:27Z</time>
      </trkpt>
      <trkpt lat="44.51502" lon="2.22986">
        <ele>358.23</ele>
        <time>2016-01-26T15:07:36Z</time>
      </trkpt>
      <trkpt lat="44.51511" lon="2.22977">
        <ele>359.19</ele>
        <time>2016-01-26T15:07:46Z</time>
      </trkpt>
      <trkpt lat="44.51523" lon="2.22969">
        <ele>360.63</ele>
        <time>2016-01-26T15:07:57Z</time>
      </trkpt>
      <trkpt lat="44.51532" lon="2.2296">
        <ele>361.11</ele>
        <time>2016-01-26T15:08:08Z</time>
      </trkpt>
      <trkpt lat="44.51538" lon="2.22949">
        <ele>361.59</ele>
        <time>2016-01-26T15:08:18Z</time>
      </trkpt>
      <trkpt lat="44.51541" lon="2.22937">
        <ele>362.07</ele>
        <time>2016-01-26T15:08:27Z</time>
      </trkpt>
      <trkpt lat="44.51544" lon="2.22923">
        <ele>362.55</ele>
        <time>2016-01-26T15:08:37Z</time>
      </trkpt>
      <trkpt lat="44.51547" lon="2.22907">
        <ele>363.52</ele>
        <time>2016-01-26T15:08:47Z</time>
      </trkpt>
      <trkpt lat="44.51555" lon="2.22894">
        <ele>364</ele>
        <time>2016-01-26T15:08:59Z</time>
      </trkpt>
      <trkpt lat="44.51567" lon="2.22898">
        <ele>364.96</ele>
        <time>2016-01-26T15:09:10Z</time>
      </trkpt>
      <trkpt lat="44.51578" lon="2.22902">
        <ele>365.44</ele>
        <time>2016-01-26T15:09:20Z</time>
      </trkpt>
      <trkpt lat="44.51589" lon="2.22896">
        <ele>366.4</ele>
        <time>2016-01-26T15:09:30Z</time>
      </trkpt>
      <trkpt lat="44.51599" lon="2.22887">
        <ele>367.36</ele>
        <time>2016-01-26T15:09:40Z</time>
      </trkpt>
      <trkpt lat="44.51605" lon="2.22876">
        <ele>368.32</ele>
        <time>2016-01-26T15:09:49Z</time>
      </trkpt>
      <trkpt lat="44.51613" lon="2.22866">
        <ele>369.28</ele>
        <time>2016-01-26T15:09:58Z</time>
      </trkpt>
      <trkpt lat="44.51621" lon="2.22856">
        <ele>369.76</ele>
        <time>2016-01-26T15:10:08Z</time>
      </trkpt>
      <trkpt lat="44.51629" lon="2.22844">
        <ele>370.73</ele>
        <time>2016-01-26T15:10:19Z</time>
      </trkpt>
      <trkpt lat="44.51637" lon="2.22832">
        <ele>371.69</ele>
        <time>2016-01-26T15:10:30Z</time>
      </trkpt>
      <trkpt lat="44.51645" lon="2.22821">
        <ele>372.17</ele>
        <time>2016-01-26T15:10:40Z</time>
      </trkpt>
      <trkpt lat="44.51651" lon="2.2281">
        <ele>373.13</ele>
        <time>2016-01-26T15:10:50Z</time>
      </trkpt>
      <trkpt lat="44.51659" lon="2.22797">
        <ele>374.09</ele>
        <time>2016-01-26T15:11:02Z</time>
      </trkpt>
      <trkpt lat="44.51666" lon="2.22787">
        <ele>375.05</ele>
        <time>2016-01-26T15:11:15Z</time>
      </trkpt>
      <trkpt lat="44.51674" lon="2.22776">
        <ele>376.01</ele>
        <time>2016-01-26T15:11:28Z</time>
      </trkpt>
      <trkpt lat="44.51679" lon="2.22762">
        <ele>376.97</ele>
        <time>2016-01-26T15:11:38Z</time>
      </trkpt>
      <trkpt lat="44.51684" lon="2.22748">
        <ele>378.42</ele>
        <time>2016-01-26T15:11:49Z</time>
      </trkpt>
      <trkpt lat="44.51687" lon="2.22731">
        <ele>379.38</ele>
        <time>2016-01-26T15:12:03Z</time>
      </trkpt>
      <trkpt lat="44.51691" lon="2.22716">
        <ele>379.86</ele>
        <time>2016-01-26T15:12:15Z</time>
      </trkpt>
      <trkpt lat="44.51696" lon="2.227">
        <ele>381.3</ele>
        <time>2016-01-26T15:12:28Z</time>
      </trkpt>
      <trkpt lat="44.51701" lon="2.22686">
        <ele>382.26</ele>
        <time>2016-01-26T15:12:39Z</time>
      </trkpt>
      <trkpt lat="44.51705" lon="2.2267">
        <ele>383.22</ele>
        <time>2016-01-26T15:12:51Z</time>
      </trkpt>
      <trkpt lat="44.5171" lon="2.22655">
        <ele>383.7</ele>
        <time>2016-01-26T15:13:01Z</time>
      </trkpt>
      <trkpt lat="44.51712" lon="2.22641">
        <ele>384.18</ele>
        <time>2016-01-26T15:13:12Z</time>
      </trkpt>
      <trkpt lat="44.51708" lon="2.22628">
        <ele>384.66</ele>
        <time>2016-01-26T15:13:23Z</time>
      </trkpt>
      <trkpt lat="44.51698" lon="2.22623">
        <ele>385.63</ele>
        <time>2016-01-26T15:13:33Z</time>
      </trkpt>
      <trkpt lat="44.51688" lon="2.2262">
        <ele>386.59</ele>
        <time>2016-01-26T15:13:46Z</time>
      </trkpt>
      <trkpt lat="44.51677" lon="2.22619">
        <ele>388.03</ele>
        <time>2016-01-26T15:13:57Z</time>
      </trkpt>
      <trkpt lat="44.51665" lon="2.22613">
        <ele>388.51</ele>
        <time>2016-01-26T15:14:10Z</time>
      </trkpt>
      <trkpt lat="44.51662" lon="2.22599">
        <ele>389.47</ele>
        <time>2016-01-26T15:14:21Z</time>
      </trkpt>
      <trkpt lat="44.51667" lon="2.22584">
        <ele>390.43</ele>
        <time>2016-01-26T15:14:32Z</time>
      </trkpt>
      <trkpt lat="44.51675" lon="2.22571">
        <ele>391.39</ele>
        <time>2016-01-26T15:14:44Z</time>
      </trkpt>
      <trkpt lat="44.51684" lon="2.22561">
        <ele>392.36</ele>
        <time>2016-01-26T15:14:55Z</time>
      </trkpt>
      <trkpt lat="44.51693" lon="2.22551">
        <ele>393.32</ele>
        <time>2016-01-26T15:15:07Z</time>
      </trkpt>
      <trkpt lat="44.51703" lon="2.22544">
        <ele>394.28</ele>
        <time>2016-01-26T15:15:17Z</time>
      </trkpt>
      <trkpt lat="44.51712" lon="2.22536">
        <ele>395.72</ele>
        <time>2016-01-26T15:15:29Z</time>
      </trkpt>
      <trkpt lat="44.5172" lon="2.22527">
        <ele>396.68</ele>
        <time>2016-01-26T15:15:40Z</time>
      </trkpt>
      <trkpt lat="44.51729" lon="2.22521">
        <ele>397.16</ele>
        <time>2016-01-26T15:15:49Z</time>
      </trkpt>
      <trkpt lat="44.51737" lon="2.22513">
        <ele>398.12</ele>
        <time>2016-01-26T15:15:58Z</time>
      </trkpt>
      <trkpt lat="44.51743" lon="2.22505">
        <ele>399.08</ele>
        <time>2016-01-26T15:16:20Z</time>
      </trkpt>
      <trkpt lat="44.51742" lon="2.22495">
        <ele>399.08</ele>
        <time>2016-01-26T15:16:51Z</time>
      </trkpt>
      <trkpt lat="44.51734" lon="2.22487">
        <ele>400.05</ele>
        <time>2016-01-26T15:17:10Z</time>
      </trkpt>
      <trkpt lat="44.51724" lon="2.2249">
        <ele>401.01</ele>
        <time>2016-01-26T15:17:19Z</time>
      </trkpt>
      <trkpt lat="44.51715" lon="2.22491">
        <ele>401.97</ele>
        <time>2016-01-26T15:17:28Z</time>
      </trkpt>
      <trkpt lat="44.51705" lon="2.22493">
        <ele>402.93</ele>
        <time>2016-01-26T15:17:38Z</time>
      </trkpt>
      <trkpt lat="44.51695" lon="2.22496">
        <ele>403.89</ele>
        <time>2016-01-26T15:17:48Z</time>
      </trkpt>
      <trkpt lat="44.51687" lon="2.22499">
        <ele>404.85</ele>
        <time>2016-01-26T15:17:58Z</time>
      </trkpt>
      <trkpt lat="44.51678" lon="2.22501">
        <ele>406.29</ele>
        <time>2016-01-26T15:18:08Z</time>
      </trkpt>
      <trkpt lat="44.5167" lon="2.22505">
        <ele>407.26</ele>
        <time>2016-01-26T15:18:20Z</time>
      </trkpt>
      <trkpt lat="44.51665" lon="2.22504">
        <ele>407.74</ele>
        <time>2016-01-26T15:21:42Z</time>
      </trkpt>
      <trkpt lat="44.51656" lon="2.225">
        <ele>408.7</ele>
        <time>2016-01-26T15:21:53Z</time>
      </trkpt>
      <trkpt lat="44.51649" lon="2.22489">
        <ele>409.66</ele>
        <time>2016-01-26T15:22:03Z</time>
      </trkpt>
      <trkpt lat="44.51645" lon="2.22477">
        <ele>410.14</ele>
        <time>2016-01-26T15:22:12Z</time>
      </trkpt>
      <trkpt lat="44.51643" lon="2.22465">
        <ele>410.62</ele>
        <time>2016-01-26T15:22:21Z</time>
      </trkpt>
      <trkpt lat="44.51643" lon="2.2245">
        <ele>411.1</ele>
        <time>2016-01-26T15:22:30Z</time>
      </trkpt>
      <trkpt lat="44.51644" lon="2.22436">
        <ele>412.06</ele>
        <time>2016-01-26T15:22:45Z</time>
      </trkpt>
      <trkpt lat="44.51639" lon="2.22426">
        <ele>412.54</ele>
        <time>2016-01-26T15:23:15Z</time>
      </trkpt>
      <trkpt lat="44.51632" lon="2.22427">
        <ele>413.98</ele>
        <time>2016-01-26T15:23:31Z</time>
      </trkpt>
      <trkpt lat="44.51623" lon="2.22434">
        <ele>414.95</ele>
        <time>2016-01-26T15:23:45Z</time>
      </trkpt>
      <trkpt lat="44.51616" lon="2.22443">
        <ele>416.87</ele>
        <time>2016-01-26T15:24:01Z</time>
      </trkpt>
      <trkpt lat="44.51608" lon="2.2245">
        <ele>417.83</ele>
        <time>2016-01-26T15:24:15Z</time>
      </trkpt>
      <trkpt lat="44.51604" lon="2.22462">
        <ele>418.79</ele>
        <time>2016-01-26T15:24:28Z</time>
      </trkpt>
      <trkpt lat="44.51598" lon="2.22472">
        <ele>419.27</ele>
        <time>2016-01-26T15:24:40Z</time>
      </trkpt>
      <trkpt lat="44.51592" lon="2.22483">
        <ele>420.23</ele>
        <time>2016-01-26T15:24:50Z</time>
      </trkpt>
      <trkpt lat="44.51586" lon="2.22493">
        <ele>420.23</ele>
        <time>2016-01-26T15:25:06Z</time>
      </trkpt>
      <trkpt lat="44.51579" lon="2.22503">
        <ele>420.71</ele>
        <time>2016-01-26T15:25:16Z</time>
      </trkpt>
      <trkpt lat="44.51571" lon="2.22513">
        <ele>421.19</ele>
        <time>2016-01-26T15:25:27Z</time>
      </trkpt>
      <trkpt lat="44.51563" lon="2.22522">
        <ele>422.16</ele>
        <time>2016-01-26T15:25:37Z</time>
      </trkpt>
      <trkpt lat="44.51556" lon="2.22531">
        <ele>423.12</ele>
        <time>2016-01-26T15:25:48Z</time>
      </trkpt>
      <trkpt lat="44.51548" lon="2.22538">
        <ele>423.12</ele>
        <time>2016-01-26T15:25:58Z</time>
      </trkpt>
      <trkpt lat="44.5154" lon="2.22547">
        <ele>423.12</ele>
        <time>2016-01-26T15:26:06Z</time>
      </trkpt>
      <trkpt lat="44.51535" lon="2.22557">
        <ele>423.12</ele>
        <time>2016-01-26T15:26:15Z</time>
      </trkpt>
      <trkpt lat="44.51531" lon="2.22568">
        <ele>423.12</ele>
        <time>2016-01-26T15:26:24Z</time>
      </trkpt>
      <trkpt lat="44.51528" lon="2.2258">
        <ele>423.12</ele>
        <time>2016-01-26T15:26:32Z</time>
      </trkpt>
      <trkpt lat="44.51526" lon="2.22594">
        <ele>423.6</ele>
        <time>2016-01-26T15:26:43Z</time>
      </trkpt>
      <trkpt lat="44.51524" lon="2.22604">
        <ele>424.08</ele>
        <time>2016-01-26T15:29:10Z</time>
      </trkpt>
      <trkpt lat="44.51519" lon="2.22617">
        <ele>424.08</ele>
        <time>2016-01-26T15:29:23Z</time>
      </trkpt>
      <trkpt lat="44.51514" lon="2.22628">
        <ele>424.08</ele>
        <time>2016-01-26T15:29:30Z</time>
      </trkpt>
      <trkpt lat="44.51507" lon="2.22637">
        <ele>424.56</ele>
        <time>2016-01-26T15:29:38Z</time>
      </trkpt>
      <trkpt lat="44.51498" lon="2.22642">
        <ele>424.56</ele>
        <time>2016-01-26T15:29:46Z</time>
      </trkpt>
      <trkpt lat="44.51489" lon="2.22639">
        <ele>425.52</ele>
        <time>2016-01-26T15:30:00Z</time>
      </trkpt>
      <trkpt lat="44.5148" lon="2.22632">
        <ele>426</ele>
        <time>2016-01-26T15:30:08Z</time>
      </trkpt>
      <trkpt lat="44.51472" lon="2.22624">
        <ele>426.48</ele>
        <time>2016-01-26T15:30:15Z</time>
      </trkpt>
      <trkpt lat="44.51464" lon="2.22616">
        <ele>427.92</ele>
        <time>2016-01-26T15:30:23Z</time>
      </trkpt>
      <trkpt lat="44.51455" lon="2.22608">
        <ele>428.89</ele>
        <time>2016-01-26T15:30:31Z</time>
      </trkpt>
      <trkpt lat="44.51446" lon="2.22602">
        <ele>429.37</ele>
        <time>2016-01-26T15:30:39Z</time>
      </trkpt>
      <trkpt lat="44.51436" lon="2.22597">
        <ele>430.81</ele>
        <time>2016-01-26T15:30:47Z</time>
      </trkpt>
      <trkpt lat="44.51427" lon="2.22591">
        <ele>431.77</ele>
        <time>2016-01-26T15:30:56Z</time>
      </trkpt>
      <trkpt lat="44.51418" lon="2.22585">
        <ele>433.21</ele>
        <time>2016-01-26T15:31:05Z</time>
      </trkpt>
      <trkpt lat="44.51409" lon="2.22579">
        <ele>434.65</ele>
        <time>2016-01-26T15:31:14Z</time>
      </trkpt>
      <trkpt lat="44.51401" lon="2.22571">
        <ele>435.61</ele>
        <time>2016-01-26T15:31:23Z</time>
      </trkpt>
      <trkpt lat="44.51393" lon="2.22563">
        <ele>437.06</ele>
        <time>2016-01-26T15:31:32Z</time>
      </trkpt>
      <trkpt lat="44.51385" lon="2.22555">
        <ele>438.5</ele>
        <time>2016-01-26T15:31:41Z</time>
      </trkpt>
      <trkpt lat="44.51377" lon="2.22547">
        <ele>439.46</ele>
        <time>2016-01-26T15:31:50Z</time>
      </trkpt>
      <trkpt lat="44.51368" lon="2.2254">
        <ele>439.94</ele>
        <time>2016-01-26T15:31:59Z</time>
      </trkpt>
      <trkpt lat="44.51358" lon="2.22536">
        <ele>440.42</ele>
        <time>2016-01-26T15:32:08Z</time>
      </trkpt>
      <trkpt lat="44.51347" lon="2.22533">
        <ele>440.9</ele>
        <time>2016-01-26T15:32:17Z</time>
      </trkpt>
      <trkpt lat="44.51337" lon="2.22531">
        <ele>441.38</ele>
        <time>2016-01-26T15:32:26Z</time>
      </trkpt>
      <trkpt lat="44.51326" lon="2.2253">
        <ele>442.34</ele>
        <time>2016-01-26T15:32:35Z</time>
      </trkpt>
      <trkpt lat="44.51316" lon="2.2253">
        <ele>442.82</ele>
        <time>2016-01-26T15:32:44Z</time>
      </trkpt>
      <trkpt lat="44.51306" lon="2.2253">
        <ele>443.31</ele>
        <time>2016-01-26T15:32:53Z</time>
      </trkpt>
      <trkpt lat="44.51296" lon="2.22532">
        <ele>444.75</ele>
        <time>2016-01-26T15:33:03Z</time>
      </trkpt>
      <trkpt lat="44.51285" lon="2.22532">
        <ele>446.19</ele>
        <time>2016-01-26T15:33:14Z</time>
      </trkpt>
      <trkpt lat="44.51275" lon="2.22531">
        <ele>447.63</ele>
        <time>2016-01-26T15:33:23Z</time>
      </trkpt>
      <trkpt lat="44.51264" lon="2.2253">
        <ele>449.07</ele>
        <time>2016-01-26T15:33:32Z</time>
      </trkpt>
      <trkpt lat="44.51255" lon="2.2253">
        <ele>450.03</ele>
        <time>2016-01-26T15:33:41Z</time>
      </trkpt>
      <trkpt lat="44.51245" lon="2.22529">
        <ele>450.52</ele>
        <time>2016-01-26T15:33:50Z</time>
      </trkpt>
      <trkpt lat="44.51236" lon="2.22529">
        <ele>451.48</ele>
        <time>2016-01-26T15:33:58Z</time>
      </trkpt>
      <trkpt lat="44.51226" lon="2.2253">
        <ele>451.96</ele>
        <time>2016-01-26T15:34:07Z</time>
      </trkpt>
      <trkpt lat="44.51216" lon="2.22531">
        <ele>451.96</ele>
        <time>2016-01-26T15:34:15Z</time>
      </trkpt>
      <trkpt lat="44.51206" lon="2.22532">
        <ele>451.96</ele>
        <time>2016-01-26T15:34:23Z</time>
      </trkpt>
      <trkpt lat="44.51196" lon="2.22533">
        <ele>451.96</ele>
        <time>2016-01-26T15:34:31Z</time>
      </trkpt>
      <trkpt lat="44.51187" lon="2.22534">
        <ele>452.44</ele>
        <time>2016-01-26T15:34:39Z</time>
      </trkpt>
      <trkpt lat="44.51177" lon="2.22536">
        <ele>452.44</ele>
        <time>2016-01-26T15:34:47Z</time>
      </trkpt>
      <trkpt lat="44.51167" lon="2.2254">
        <ele>452.44</ele>
        <time>2016-01-26T15:34:55Z</time>
      </trkpt>
      <trkpt lat="44.5116" lon="2.22545">
        <ele>452.92</ele>
        <time>2016-01-26T15:35:09Z</time>
      </trkpt>
      <trkpt lat="44.5115" lon="2.2255">
        <ele>452.92</ele>
        <time>2016-01-26T15:35:17Z</time>
      </trkpt>
      <trkpt lat="44.51141" lon="2.22554">
        <ele>453.4</ele>
        <time>2016-01-26T15:35:25Z</time>
      </trkpt>
      <trkpt lat="44.51132" lon="2.22557">
        <ele>453.4</ele>
        <time>2016-01-26T15:35:32Z</time>
      </trkpt>
      <trkpt lat="44.51122" lon="2.22559">
        <ele>453.4</ele>
        <time>2016-01-26T15:35:40Z</time>
      </trkpt>
      <trkpt lat="44.51112" lon="2.22559">
        <ele>453.88</ele>
        <time>2016-01-26T15:35:47Z</time>
      </trkpt>
      <trkpt lat="44.51102" lon="2.2256">
        <ele>453.88</ele>
        <time>2016-01-26T15:35:55Z</time>
      </trkpt>
      <trkpt lat="44.51091" lon="2.2256">
        <ele>453.88</ele>
        <time>2016-01-26T15:36:03Z</time>
      </trkpt>
      <trkpt lat="44.51082" lon="2.22559">
        <ele>454.36</ele>
        <time>2016-01-26T15:36:10Z</time>
      </trkpt>
      <trkpt lat="44.51073" lon="2.22555">
        <ele>454.84</ele>
        <time>2016-01-26T15:36:17Z</time>
      </trkpt>
      <trkpt lat="44.51064" lon="2.22549">
        <ele>454.84</ele>
        <time>2016-01-26T15:36:24Z</time>
      </trkpt>
      <trkpt lat="44.51057" lon="2.22542">
        <ele>455.32</ele>
        <time>2016-01-26T15:36:31Z</time>
      </trkpt>
      <trkpt lat="44.5105" lon="2.22532">
        <ele>455.32</ele>
        <time>2016-01-26T15:36:38Z</time>
      </trkpt>
      <trkpt lat="44.51044" lon="2.22523">
        <ele>455.32</ele>
        <time>2016-01-26T15:36:45Z</time>
      </trkpt>
      <trkpt lat="44.51038" lon="2.22513">
        <ele>455.32</ele>
        <time>2016-01-26T15:36:52Z</time>
      </trkpt>
      <trkpt lat="44.51032" lon="2.22503">
        <ele>453.88</ele>
        <time>2016-01-26T15:37:00Z</time>
      </trkpt>
      <trkpt lat="44.51025" lon="2.22493">
        <ele>453.88</ele>
        <time>2016-01-26T15:37:08Z</time>
      </trkpt>
      <trkpt lat="44.51018" lon="2.22483">
        <ele>453.4</ele>
        <time>2016-01-26T15:37:16Z</time>
      </trkpt>
      <trkpt lat="44.51012" lon="2.22472">
        <ele>453.4</ele>
        <time>2016-01-26T15:37:24Z</time>
      </trkpt>
      <trkpt lat="44.51006" lon="2.22463">
        <ele>452.92</ele>
        <time>2016-01-26T15:37:31Z</time>
      </trkpt>
      <trkpt lat="44.51" lon="2.22454">
        <ele>452.44</ele>
        <time>2016-01-26T15:37:39Z</time>
      </trkpt>
      <trkpt lat="44.50994" lon="2.22444">
        <ele>451.96</ele>
        <time>2016-01-26T15:37:47Z</time>
      </trkpt>
      <trkpt lat="44.50988" lon="2.22434">
        <ele>451.48</ele>
        <time>2016-01-26T15:37:55Z</time>
      </trkpt>
      <trkpt lat="44.50981" lon="2.22424">
        <ele>451</ele>
        <time>2016-01-26T15:38:05Z</time>
      </trkpt>
      <trkpt lat="44.50975" lon="2.22413">
        <ele>450.52</ele>
        <time>2016-01-26T15:38:13Z</time>
      </trkpt>
      <trkpt lat="44.50969" lon="2.22403">
        <ele>450.52</ele>
        <time>2016-01-26T15:38:21Z</time>
      </trkpt>
      <trkpt lat="44.50963" lon="2.22392">
        <ele>450.52</ele>
        <time>2016-01-26T15:38:29Z</time>
      </trkpt>
      <trkpt lat="44.50957" lon="2.22381">
        <ele>450.03</ele>
        <time>2016-01-26T15:38:37Z</time>
      </trkpt>
      <trkpt lat="44.50951" lon="2.2237">
        <ele>449.55</ele>
        <time>2016-01-26T15:38:45Z</time>
      </trkpt>
      <trkpt lat="44.50945" lon="2.22359">
        <ele>449.55</ele>
        <time>2016-01-26T15:38:53Z</time>
      </trkpt>
      <trkpt lat="44.5094" lon="2.22348">
        <ele>449.55</ele>
        <time>2016-01-26T15:39:01Z</time>
      </trkpt>
      <trkpt lat="44.50935" lon="2.22336">
        <ele>449.55</ele>
        <time>2016-01-26T15:39:09Z</time>
      </trkpt>
      <trkpt lat="44.50929" lon="2.22325">
        <ele>449.55</ele>
        <time>2016-01-26T15:39:17Z</time>
      </trkpt>
      <trkpt lat="44.50924" lon="2.22312">
        <ele>450.03</ele>
        <time>2016-01-26T15:39:48Z</time>
      </trkpt>
      <trkpt lat="44.50917" lon="2.22303">
        <ele>450.03</ele>
        <time>2016-01-26T15:39:56Z</time>
      </trkpt>
      <trkpt lat="44.5091" lon="2.22294">
        <ele>450.03</ele>
        <time>2016-01-26T15:40:04Z</time>
      </trkpt>
      <trkpt lat="44.50902" lon="2.22286">
        <ele>450.03</ele>
        <time>2016-01-26T15:40:12Z</time>
      </trkpt>
      <trkpt lat="44.50895" lon="2.22278">
        <ele>450.03</ele>
        <time>2016-01-26T15:40:20Z</time>
      </trkpt>
      <trkpt lat="44.50886" lon="2.22273">
        <ele>450.03</ele>
        <time>2016-01-26T15:40:30Z</time>
      </trkpt>
      <trkpt lat="44.50876" lon="2.22265">
        <ele>450.03</ele>
        <time>2016-01-26T15:40:38Z</time>
      </trkpt>
      <trkpt lat="44.50868" lon="2.22256">
        <ele>450.03</ele>
        <time>2016-01-26T15:40:46Z</time>
      </trkpt>
      <trkpt lat="44.5086" lon="2.22248">
        <ele>450.03</ele>
        <time>2016-01-26T15:40:54Z</time>
      </trkpt>
      <trkpt lat="44.50851" lon="2.22241">
        <ele>451.48</ele>
        <time>2016-01-26T15:41:10Z</time>
      </trkpt>
      <trkpt lat="44.50843" lon="2.22235">
        <ele>451.96</ele>
        <time>2016-01-26T15:41:20Z</time>
      </trkpt>
      <trkpt lat="44.50833" lon="2.22231">
        <ele>451.96</ele>
        <time>2016-01-26T15:41:29Z</time>
      </trkpt>
      <trkpt lat="44.50823" lon="2.22226">
        <ele>452.44</ele>
        <time>2016-01-26T15:41:39Z</time>
      </trkpt>
      <trkpt lat="44.50813" lon="2.22222">
        <ele>453.4</ele>
        <time>2016-01-26T15:41:49Z</time>
      </trkpt>
      <trkpt lat="44.50803" lon="2.22222">
        <ele>453.88</ele>
        <time>2016-01-26T15:41:59Z</time>
      </trkpt>
      <trkpt lat="44.50794" lon="2.22217">
        <ele>454.84</ele>
        <time>2016-01-26T15:42:15Z</time>
      </trkpt>
      <trkpt lat="44.50785" lon="2.22215">
        <ele>455.8</ele>
        <time>2016-01-26T15:42:24Z</time>
      </trkpt>
      <trkpt lat="44.50775" lon="2.22211">
        <ele>457.72</ele>
        <time>2016-01-26T15:42:35Z</time>
      </trkpt>
      <trkpt lat="44.50765" lon="2.22207">
        <ele>458.69</ele>
        <time>2016-01-26T15:42:45Z</time>
      </trkpt>
      <trkpt lat="44.50756" lon="2.22202">
        <ele>459.65</ele>
        <time>2016-01-26T15:42:55Z</time>
      </trkpt>
      <trkpt lat="44.50746" lon="2.22197">
        <ele>460.61</ele>
        <time>2016-01-26T15:43:05Z</time>
      </trkpt>
      <trkpt lat="44.50737" lon="2.22191">
        <ele>461.57</ele>
        <time>2016-01-26T15:43:13Z</time>
      </trkpt>
      <trkpt lat="44.50727" lon="2.22187">
        <ele>461.09</ele>
        <time>2016-01-26T15:43:21Z</time>
      </trkpt>
      <trkpt lat="44.50718" lon="2.22183">
        <ele>462.05</ele>
        <time>2016-01-26T15:43:30Z</time>
      </trkpt>
      <trkpt lat="44.50709" lon="2.22177">
        <ele>462.05</ele>
        <time>2016-01-26T15:43:38Z</time>
      </trkpt>
      <trkpt lat="44.507" lon="2.22173">
        <ele>460.61</ele>
        <time>2016-01-26T15:43:45Z</time>
      </trkpt>
      <trkpt lat="44.50692" lon="2.22167">
        <ele>460.13</ele>
        <time>2016-01-26T15:43:53Z</time>
      </trkpt>
      <trkpt lat="44.50682" lon="2.22162">
        <ele>459.17</ele>
        <time>2016-01-26T15:44:01Z</time>
      </trkpt>
      <trkpt lat="44.50673" lon="2.22158">
        <ele>459.17</ele>
        <time>2016-01-26T15:44:08Z</time>
      </trkpt>
      <trkpt lat="44.50664" lon="2.22154">
        <ele>458.21</ele>
        <time>2016-01-26T15:44:16Z</time>
      </trkpt>
      <trkpt lat="44.50655" lon="2.22151">
        <ele>457.24</ele>
        <time>2016-01-26T15:44:28Z</time>
      </trkpt>
      <trkpt lat="44.50646" lon="2.22147">
        <ele>457.24</ele>
        <time>2016-01-26T15:44:37Z</time>
      </trkpt>
      <trkpt lat="44.50637" lon="2.22141">
        <ele>456.76</ele>
        <time>2016-01-26T15:44:45Z</time>
      </trkpt>
      <trkpt lat="44.50628" lon="2.22135">
        <ele>456.28</ele>
        <time>2016-01-26T15:44:54Z</time>
      </trkpt>
      <trkpt lat="44.50619" lon="2.2213">
        <ele>455.8</ele>
        <time>2016-01-26T15:45:04Z</time>
      </trkpt>
      <trkpt lat="44.5061" lon="2.22125">
        <ele>455.8</ele>
        <time>2016-01-26T15:45:13Z</time>
      </trkpt>
      <trkpt lat="44.50601" lon="2.22121">
        <ele>455.8</ele>
        <time>2016-01-26T15:45:22Z</time>
      </trkpt>
      <trkpt lat="44.50591" lon="2.2212">
        <ele>455.8</ele>
        <time>2016-01-26T15:45:30Z</time>
      </trkpt>
      <trkpt lat="44.50583" lon="2.22113">
        <ele>455.32</ele>
        <time>2016-01-26T15:45:40Z</time>
      </trkpt>
      <trkpt lat="44.50573" lon="2.22105">
        <ele>454.84</ele>
        <time>2016-01-26T15:45:49Z</time>
      </trkpt>
      <trkpt lat="44.50566" lon="2.22098">
        <ele>454.36</ele>
        <time>2016-01-26T15:45:57Z</time>
      </trkpt>
      <trkpt lat="44.50558" lon="2.2209">
        <ele>453.4</ele>
        <time>2016-01-26T15:46:04Z</time>
      </trkpt>
      <trkpt lat="44.50552" lon="2.22079">
        <ele>452.44</ele>
        <time>2016-01-26T15:46:12Z</time>
      </trkpt>
      <trkpt lat="44.50545" lon="2.22068">
        <ele>451.48</ele>
        <time>2016-01-26T15:46:20Z</time>
      </trkpt>
      <trkpt lat="44.50538" lon="2.22058">
        <ele>450.52</ele>
        <time>2016-01-26T15:46:28Z</time>
      </trkpt>
      <trkpt lat="44.50529" lon="2.2205">
        <ele>448.59</ele>
        <time>2016-01-26T15:46:36Z</time>
      </trkpt>
      <trkpt lat="44.5052" lon="2.22046">
        <ele>447.63</ele>
        <time>2016-01-26T15:46:43Z</time>
      </trkpt>
      <trkpt lat="44.50509" lon="2.22044">
        <ele>446.67</ele>
        <time>2016-01-26T15:46:51Z</time>
      </trkpt>
      <trkpt lat="44.505" lon="2.22047">
        <ele>446.67</ele>
        <time>2016-01-26T15:46:58Z</time>
      </trkpt>
      <trkpt lat="44.5049" lon="2.22049">
        <ele>445.71</ele>
        <time>2016-01-26T15:47:06Z</time>
      </trkpt>
      <trkpt lat="44.50481" lon="2.22053">
        <ele>445.23</ele>
        <time>2016-01-26T15:47:13Z</time>
      </trkpt>
      <trkpt lat="44.50471" lon="2.22056">
        <ele>444.75</ele>
        <time>2016-01-26T15:47:21Z</time>
      </trkpt>
      <trkpt lat="44.50462" lon="2.22061">
        <ele>444.27</ele>
        <time>2016-01-26T15:47:29Z</time>
      </trkpt>
      <trkpt lat="44.50452" lon="2.22066">
        <ele>443.79</ele>
        <time>2016-01-26T15:47:37Z</time>
      </trkpt>
      <trkpt lat="44.50442" lon="2.22071">
        <ele>443.31</ele>
        <time>2016-01-26T15:47:46Z</time>
      </trkpt>
      <trkpt lat="44.50432" lon="2.22075">
        <ele>442.82</ele>
        <time>2016-01-26T15:47:54Z</time>
      </trkpt>
      <trkpt lat="44.50424" lon="2.22082">
        <ele>442.82</ele>
        <time>2016-01-26T15:48:02Z</time>
      </trkpt>
      <trkpt lat="44.50415" lon="2.22089">
        <ele>442.34</ele>
        <time>2016-01-26T15:48:10Z</time>
      </trkpt>
      <trkpt lat="44.50407" lon="2.22096">
        <ele>442.34</ele>
        <time>2016-01-26T15:48:18Z</time>
      </trkpt>
      <trkpt lat="44.504" lon="2.22104">
        <ele>442.34</ele>
        <time>2016-01-26T15:48:26Z</time>
      </trkpt>
      <trkpt lat="44.50393" lon="2.22111">
        <ele>442.34</ele>
        <time>2016-01-26T15:48:35Z</time>
      </trkpt>
      <trkpt lat="44.50384" lon="2.22119">
        <ele>441.86</ele>
        <time>2016-01-26T15:48:44Z</time>
      </trkpt>
      <trkpt lat="44.50376" lon="2.22126">
        <ele>441.86</ele>
        <time>2016-01-26T15:48:52Z</time>
      </trkpt>
      <trkpt lat="44.50367" lon="2.22134">
        <ele>441.86</ele>
        <time>2016-01-26T15:49:02Z</time>
      </trkpt>
      <trkpt lat="44.50358" lon="2.22142">
        <ele>441.86</ele>
        <time>2016-01-26T15:49:11Z</time>
      </trkpt>
      <trkpt lat="44.50348" lon="2.2215">
        <ele>441.86</ele>
        <time>2016-01-26T15:49:20Z</time>
      </trkpt>
      <trkpt lat="44.50338" lon="2.22156">
        <ele>441.86</ele>
        <time>2016-01-26T15:49:29Z</time>
      </trkpt>
      <trkpt lat="44.50327" lon="2.2216">
        <ele>441.86</ele>
        <time>2016-01-26T15:49:38Z</time>
      </trkpt>
      <trkpt lat="44.50318" lon="2.22164">
        <ele>443.31</ele>
        <time>2016-01-26T15:49:46Z</time>
      </trkpt>
      <trkpt lat="44.50309" lon="2.2217">
        <ele>443.31</ele>
        <time>2016-01-26T15:49:54Z</time>
      </trkpt>
      <trkpt lat="44.503" lon="2.22174">
        <ele>443.31</ele>
        <time>2016-01-26T15:50:03Z</time>
      </trkpt>
      <trkpt lat="44.50291" lon="2.22178">
        <ele>443.31</ele>
        <time>2016-01-26T15:50:11Z</time>
      </trkpt>
      <trkpt lat="44.50282" lon="2.22182">
        <ele>443.31</ele>
        <time>2016-01-26T15:50:19Z</time>
      </trkpt>
      <trkpt lat="44.50272" lon="2.22187">
        <ele>441.86</ele>
        <time>2016-01-26T15:50:28Z</time>
      </trkpt>
      <trkpt lat="44.50262" lon="2.22191">
        <ele>441.38</ele>
        <time>2016-01-26T15:50:36Z</time>
      </trkpt>
      <trkpt lat="44.50254" lon="2.22197">
        <ele>440.42</ele>
        <time>2016-01-26T15:50:45Z</time>
      </trkpt>
      <trkpt lat="44.50247" lon="2.222">
        <ele>440.42</ele>
        <time>2016-01-26T15:51:01Z</time>
      </trkpt>
      <trkpt lat="44.50238" lon="2.22204">
        <ele>439.94</ele>
        <time>2016-01-26T15:51:09Z</time>
      </trkpt>
      <trkpt lat="44.50228" lon="2.22209">
        <ele>439.46</ele>
        <time>2016-01-26T15:51:17Z</time>
      </trkpt>
      <trkpt lat="44.50219" lon="2.22212">
        <ele>439.46</ele>
        <time>2016-01-26T15:51:25Z</time>
      </trkpt>
      <trkpt lat="44.50209" lon="2.22216">
        <ele>438.98</ele>
        <time>2016-01-26T15:51:35Z</time>
      </trkpt>
      <trkpt lat="44.50197" lon="2.2222">
        <ele>438.98</ele>
        <time>2016-01-26T15:51:45Z</time>
      </trkpt>
      <trkpt lat="44.50186" lon="2.22222">
        <ele>438.5</ele>
        <time>2016-01-26T15:51:55Z</time>
      </trkpt>
      <trkpt lat="44.50175" lon="2.22221">
        <ele>438.02</ele>
        <time>2016-01-26T15:52:03Z</time>
      </trkpt>
      <trkpt lat="44.50165" lon="2.22219">
        <ele>437.06</ele>
        <time>2016-01-26T15:52:11Z</time>
      </trkpt>
      <trkpt lat="44.50155" lon="2.22216">
        <ele>436.58</ele>
        <time>2016-01-26T15:52:20Z</time>
      </trkpt>
      <trkpt lat="44.50145" lon="2.22212">
        <ele>436.58</ele>
        <time>2016-01-26T15:52:29Z</time>
      </trkpt>
      <trkpt lat="44.50135" lon="2.2221">
        <ele>436.1</ele>
        <time>2016-01-26T15:52:38Z</time>
      </trkpt>
      <trkpt lat="44.50125" lon="2.22208">
        <ele>436.1</ele>
        <time>2016-01-26T15:52:46Z</time>
      </trkpt>
      <trkpt lat="44.50115" lon="2.22206">
        <ele>435.61</ele>
        <time>2016-01-26T15:52:54Z</time>
      </trkpt>
      <trkpt lat="44.50104" lon="2.22206">
        <ele>435.61</ele>
        <time>2016-01-26T15:53:02Z</time>
      </trkpt>
      <trkpt lat="44.50095" lon="2.22206">
        <ele>435.13</ele>
        <time>2016-01-26T15:53:10Z</time>
      </trkpt>
      <trkpt lat="44.50087" lon="2.22211">
        <ele>434.65</ele>
        <time>2016-01-26T15:53:19Z</time>
      </trkpt>
      <trkpt lat="44.50078" lon="2.22219">
        <ele>434.17</ele>
        <time>2016-01-26T15:53:28Z</time>
      </trkpt>
      <trkpt lat="44.50069" lon="2.22228">
        <ele>433.69</ele>
        <time>2016-01-26T15:53:37Z</time>
      </trkpt>
      <trkpt lat="44.50061" lon="2.22236">
        <ele>433.21</ele>
        <time>2016-01-26T15:53:46Z</time>
      </trkpt>
      <trkpt lat="44.50053" lon="2.22245">
        <ele>432.73</ele>
        <time>2016-01-26T15:53:54Z</time>
      </trkpt>
      <trkpt lat="44.50045" lon="2.22253">
        <ele>432.73</ele>
        <time>2016-01-26T15:54:02Z</time>
      </trkpt>
      <trkpt lat="44.50038" lon="2.22261">
        <ele>432.25</ele>
        <time>2016-01-26T15:54:10Z</time>
      </trkpt>
      <trkpt lat="44.5003" lon="2.22269">
        <ele>432.73</ele>
        <time>2016-01-26T15:54:18Z</time>
      </trkpt>
      <trkpt lat="44.50022" lon="2.22279">
        <ele>432.73</ele>
        <time>2016-01-26T15:54:27Z</time>
      </trkpt>
      <trkpt lat="44.50013" lon="2.22287">
        <ele>432.73</ele>
        <time>2016-01-26T15:54:36Z</time>
      </trkpt>
      <trkpt lat="44.50005" lon="2.22296">
        <ele>432.73</ele>
        <time>2016-01-26T15:54:45Z</time>
      </trkpt>
      <trkpt lat="44.49997" lon="2.22305">
        <ele>432.73</ele>
        <time>2016-01-26T15:54:54Z</time>
      </trkpt>
      <trkpt lat="44.49988" lon="2.2231">
        <ele>432.73</ele>
        <time>2016-01-26T15:55:02Z</time>
      </trkpt>
      <trkpt lat="44.49978" lon="2.22312">
        <ele>432.73</ele>
        <time>2016-01-26T15:55:11Z</time>
      </trkpt>
      <trkpt lat="44.49969" lon="2.22306">
        <ele>433.69</ele>
        <time>2016-01-26T15:55:19Z</time>
      </trkpt>
      <trkpt lat="44.49962" lon="2.22296">
        <ele>434.65</ele>
        <time>2016-01-26T15:55:28Z</time>
      </trkpt>
      <trkpt lat="44.49955" lon="2.22287">
        <ele>434.65</ele>
        <time>2016-01-26T15:55:36Z</time>
      </trkpt>
      <trkpt lat="44.49946" lon="2.22279">
        <ele>434.65</ele>
        <time>2016-01-26T15:55:46Z</time>
      </trkpt>
      <trkpt lat="44.49939" lon="2.22271">
        <ele>434.65</ele>
        <time>2016-01-26T15:57:01Z</time>
      </trkpt>
      <trkpt lat="44.4994" lon="2.22257">
        <ele>435.61</ele>
        <time>2016-01-26T15:59:10Z</time>
      </trkpt>
    </trkseg>
  </trk>
</gpx>